<?xml version='1.0' encoding='UTF-8'?><gpx version="1.1" creator="JPX - https://github.com/jenetics/jpx" xmlns="http://www.topografix.com/GPX/1/1"><trk><trkseg><trkpt lat="40.8733567" lon="9.63078"><ele>14.0</ele><time>2026-04-19T07:23:18.642Z</time></trkpt><trkpt lat="40.8734167" lon="9.6308067"><ele>13.999999999999998</ele><time>2026-04-19T07:23:26.628Z</time></trkpt><trkpt lat="40.87351" lon="9.63078"><ele>13.999999999999998</ele><time>2026-04-19T07:23:29.63Z</time></trkpt><trkpt lat="40.8736183" lon="9.6306767"><ele>14.0</ele><time>2026-04-19T07:23:31.627Z</time></trkpt><trkpt lat="40.87369" lon="9.63062"><ele>14.0</ele><time>2026-04-19T07:23:32.633Z</time></trkpt><trkpt lat="40.8737667" lon="9.630555"><ele>14.0</ele><time>2026-04-19T07:23:33.623Z</time></trkpt><trkpt lat="40.8738533" lon="9.6304767"><ele>14.0</ele><time>2026-04-19T07:23:34.647Z</time></trkpt><trkpt lat="40.8739483" lon="9.6303867"><ele>14.0</ele><time>2026-04-19T07:23:35.637Z</time></trkpt><trkpt lat="40.874045" lon="9.6302967"><ele>14.0</ele><time>2026-04-19T07:23:36.644Z</time></trkpt><trkpt lat="40.8741433" lon="9.630205"><ele>14.0</ele><time>2026-04-19T07:23:37.633Z</time></trkpt><trkpt lat="40.8742383" lon="9.6301167"><ele>13.999999999999998</ele><time>2026-04-19T07:23:38.64Z</time></trkpt><trkpt lat="40.8743267" lon="9.6300317"><ele>13.999999999999998</ele><time>2026-04-19T07:23:39.646Z</time></trkpt><trkpt lat="40.8744133" lon="9.6299483"><ele>14.0</ele><time>2026-04-19T07:23:40.636Z</time></trkpt><trkpt lat="40.8744983" lon="9.6298683"><ele>14.0</ele><time>2026-04-19T07:23:41.642Z</time></trkpt><trkpt lat="40.87458" lon="9.62979"><ele>14.166666666666668</ele><time>2026-04-19T07:23:42.632Z</time></trkpt><trkpt lat="40.8746567" lon="9.6297233"><ele>14.333333333333334</ele><time>2026-04-19T07:23:43.64Z</time></trkpt><trkpt lat="40.8747283" lon="9.6296617"><ele>14.5</ele><time>2026-04-19T07:23:44.63Z</time></trkpt><trkpt lat="40.8748" lon="9.6296017"><ele>14.666666666666668</ele><time>2026-04-19T07:23:45.635Z</time></trkpt><trkpt lat="40.8748683" lon="9.6295433"><ele>14.833333333333334</ele><time>2026-04-19T07:23:46.642Z</time></trkpt><trkpt lat="40.8749317" lon="9.62949"><ele>15.0</ele><time>2026-04-19T07:23:47.633Z</time></trkpt><trkpt lat="40.8749883" lon="9.6294367"><ele>15.0</ele><time>2026-04-19T07:23:48.639Z</time></trkpt><trkpt lat="40.875045" lon="9.6293883"><ele>15.0</ele><time>2026-04-19T07:23:49.629Z</time></trkpt><trkpt lat="40.8751367" lon="9.6293183"><ele>15.0</ele><time>2026-04-19T07:23:51.642Z</time></trkpt><trkpt lat="40.8751967" lon="9.6292683"><ele>15.0</ele><time>2026-04-19T07:23:54.629Z</time></trkpt><trkpt lat="40.8752383" lon="9.6292017"><ele>15.0</ele><time>2026-04-19T07:25:55.626Z</time></trkpt><trkpt lat="40.8753" lon="9.6291583"><ele>15.0</ele><time>2026-04-19T07:25:57.638Z</time></trkpt><trkpt lat="40.875385" lon="9.6291633"><ele>14.4</ele><time>2026-04-19T07:25:59.636Z</time></trkpt><trkpt lat="40.8754933" lon="9.62918"><ele>13.8</ele><time>2026-04-19T07:26:01.631Z</time></trkpt><trkpt lat="40.8756033" lon="9.6291467"><ele>13.2</ele><time>2026-04-19T07:26:03.645Z</time></trkpt><trkpt lat="40.8756917" lon="9.6290533"><ele>12.6</ele><time>2026-04-19T07:26:05.642Z</time></trkpt><trkpt lat="40.8757067" lon="9.6289417"><ele>12.0</ele><time>2026-04-19T07:26:07.639Z</time></trkpt><trkpt lat="40.8756483" lon="9.6288533"><ele>12.0</ele><time>2026-04-19T07:26:10.642Z</time></trkpt><trkpt lat="40.8755817" lon="9.628875"><ele>12.0</ele><time>2026-04-19T07:26:12.638Z</time></trkpt><trkpt lat="40.875495" lon="9.62896"><ele>12.0</ele><time>2026-04-19T07:26:14.635Z</time></trkpt><trkpt lat="40.875405" lon="9.62906"><ele>12.0</ele><time>2026-04-19T07:26:16.631Z</time></trkpt><trkpt lat="40.8753117" lon="9.62914"><ele>12.0</ele><time>2026-04-19T07:26:18.628Z</time></trkpt><trkpt lat="40.8752433" lon="9.6292"><ele>12.0</ele><time>2026-04-19T07:26:20.641Z</time></trkpt><trkpt lat="40.87518" lon="9.6292583"><ele>12.0</ele><time>2026-04-19T07:26:22.636Z</time></trkpt><trkpt lat="40.8750917" lon="9.629335"><ele>12.0</ele><time>2026-04-19T07:26:24.634Z</time></trkpt><trkpt lat="40.8749917" lon="9.629425"><ele>12.0</ele><time>2026-04-19T07:26:26.63Z</time></trkpt><trkpt lat="40.8748833" lon="9.62951"><ele>12.0</ele><time>2026-04-19T07:26:28.626Z</time></trkpt><trkpt lat="40.874825" lon="9.6295633"><ele>11.833333333333334</ele><time>2026-04-19T07:26:29.634Z</time></trkpt><trkpt lat="40.8747633" lon="9.6296167"><ele>11.666666666666666</ele><time>2026-04-19T07:26:30.639Z</time></trkpt><trkpt lat="40.8746967" lon="9.6296767"><ele>11.5</ele><time>2026-04-19T07:26:31.63Z</time></trkpt><trkpt lat="40.8746217" lon="9.6297517"><ele>11.333333333333332</ele><time>2026-04-19T07:26:32.636Z</time></trkpt><trkpt lat="40.87454" lon="9.6298233"><ele>11.166666666666666</ele><time>2026-04-19T07:26:33.626Z</time></trkpt><trkpt lat="40.8744583" lon="9.6299"><ele>11.0</ele><time>2026-04-19T07:26:34.633Z</time></trkpt><trkpt lat="40.87438" lon="9.6299717"><ele>11.0</ele><time>2026-04-19T07:26:35.639Z</time></trkpt><trkpt lat="40.8743067" lon="9.6300483"><ele>11.0</ele><time>2026-04-19T07:26:36.629Z</time></trkpt><trkpt lat="40.8742317" lon="9.6301183"><ele>11.0</ele><time>2026-04-19T07:26:37.636Z</time></trkpt><trkpt lat="40.8741617" lon="9.63018"><ele>11.0</ele><time>2026-04-19T07:26:38.626Z</time></trkpt><trkpt lat="40.874095" lon="9.630245"><ele>11.0</ele><time>2026-04-19T07:26:39.632Z</time></trkpt><trkpt lat="40.8740317" lon="9.6303083"><ele>11.0</ele><time>2026-04-19T07:26:40.622Z</time></trkpt><trkpt lat="40.8739683" lon="9.6303717"><ele>11.0</ele><time>2026-04-19T07:26:41.646Z</time></trkpt><trkpt lat="40.8738983" lon="9.6304367"><ele>11.0</ele><time>2026-04-19T07:26:42.636Z</time></trkpt><trkpt lat="40.8738233" lon="9.6305033"><ele>11.0</ele><time>2026-04-19T07:26:43.643Z</time></trkpt><trkpt lat="40.87374" lon="9.6305717"><ele>11.0</ele><time>2026-04-19T07:26:44.632Z</time></trkpt><trkpt lat="40.87366" lon="9.6306467"><ele>11.0</ele><time>2026-04-19T07:26:45.639Z</time></trkpt><trkpt lat="40.8735733" lon="9.6307217"><ele>11.0</ele><time>2026-04-19T07:26:46.646Z</time></trkpt><trkpt lat="40.873485" lon="9.6308017"><ele>11.0</ele><time>2026-04-19T07:26:47.636Z</time></trkpt><trkpt lat="40.8733917" lon="9.6308817"><ele>11.0</ele><time>2026-04-19T07:26:48.642Z</time></trkpt><trkpt lat="40.8732967" lon="9.6309617"><ele>11.0</ele><time>2026-04-19T07:26:49.631Z</time></trkpt><trkpt lat="40.8732" lon="9.6310433"><ele>11.0</ele><time>2026-04-19T07:26:50.639Z</time></trkpt><trkpt lat="40.8730983" lon="9.631125"><ele>11.25</ele><time>2026-04-19T07:26:51.629Z</time></trkpt><trkpt lat="40.8729917" lon="9.6312133"><ele>11.5</ele><time>2026-04-19T07:26:52.635Z</time></trkpt><trkpt lat="40.8728833" lon="9.6313117"><ele>11.75</ele><time>2026-04-19T07:26:53.641Z</time></trkpt><trkpt lat="40.872775" lon="9.6314233"><ele>12.0</ele><time>2026-04-19T07:26:54.631Z</time></trkpt><trkpt lat="40.87267" lon="9.6315483"><ele>12.25</ele><time>2026-04-19T07:26:55.637Z</time></trkpt><trkpt lat="40.87257" lon="9.6316817"><ele>12.5</ele><time>2026-04-19T07:26:56.628Z</time></trkpt><trkpt lat="40.8724767" lon="9.631825"><ele>12.75</ele><time>2026-04-19T07:26:57.634Z</time></trkpt><trkpt lat="40.8723917" lon="9.631985"><ele>13.0</ele><time>2026-04-19T07:26:58.64Z</time></trkpt><trkpt lat="40.8723083" lon="9.6321517"><ele>12.333333333333332</ele><time>2026-04-19T07:26:59.631Z</time></trkpt><trkpt lat="40.872225" lon="9.6323183"><ele>11.666666666666666</ele><time>2026-04-19T07:27:00.637Z</time></trkpt><trkpt lat="40.8721417" lon="9.63249"><ele>11.0</ele><time>2026-04-19T07:27:01.628Z</time></trkpt><trkpt lat="40.872055" lon="9.632665"><ele>10.666666666666666</ele><time>2026-04-19T07:27:02.633Z</time></trkpt><trkpt lat="40.8719683" lon="9.6328417"><ele>10.333333333333334</ele><time>2026-04-19T07:27:03.64Z</time></trkpt><trkpt lat="40.871885" lon="9.6330233"><ele>10.0</ele><time>2026-04-19T07:27:04.631Z</time></trkpt><trkpt lat="40.8718033" lon="9.6332117"><ele>10.333333333333334</ele><time>2026-04-19T07:27:05.637Z</time></trkpt><trkpt lat="40.8717267" lon="9.6334067"><ele>10.666666666666666</ele><time>2026-04-19T07:27:06.627Z</time></trkpt><trkpt lat="40.87165" lon="9.6336033"><ele>11.0</ele><time>2026-04-19T07:27:07.633Z</time></trkpt><trkpt lat="40.8715717" lon="9.6338017"><ele>11.0</ele><time>2026-04-19T07:27:08.641Z</time></trkpt><trkpt lat="40.8714933" lon="9.634"><ele>11.0</ele><time>2026-04-19T07:27:09.629Z</time></trkpt><trkpt lat="40.8714133" lon="9.6342"><ele>11.0</ele><time>2026-04-19T07:27:10.636Z</time></trkpt><trkpt lat="40.871335" lon="9.6344017"><ele>10.666666666666666</ele><time>2026-04-19T07:27:11.626Z</time></trkpt><trkpt lat="40.8712617" lon="9.6346083"><ele>10.333333333333334</ele><time>2026-04-19T07:27:12.633Z</time></trkpt><trkpt lat="40.8711933" lon="9.63482"><ele>10.0</ele><time>2026-04-19T07:27:13.639Z</time></trkpt><trkpt lat="40.87113" lon="9.6350367"><ele>10.0</ele><time>2026-04-19T07:27:14.647Z</time></trkpt><trkpt lat="40.87107" lon="9.635255"><ele>10.0</ele><time>2026-04-19T07:27:15.637Z</time></trkpt><trkpt lat="40.871015" lon="9.6354683"><ele>10.0</ele><time>2026-04-19T07:27:16.627Z</time></trkpt><trkpt lat="40.8709617" lon="9.6356733"><ele>10.0</ele><time>2026-04-19T07:27:17.633Z</time></trkpt><trkpt lat="40.8709067" lon="9.6358817"><ele>10.0</ele><time>2026-04-19T07:27:18.622Z</time></trkpt><trkpt lat="40.87085" lon="9.6360917"><ele>10.0</ele><time>2026-04-19T07:27:19.646Z</time></trkpt><trkpt lat="40.8707917" lon="9.6363067"><ele>10.0</ele><time>2026-04-19T07:27:20.636Z</time></trkpt><trkpt lat="40.870735" lon="9.6365233"><ele>10.0</ele><time>2026-04-19T07:27:21.643Z</time></trkpt><trkpt lat="40.87068" lon="9.636745"><ele>10.0</ele><time>2026-04-19T07:27:22.633Z</time></trkpt><trkpt lat="40.8706267" lon="9.636975"><ele>10.0</ele><time>2026-04-19T07:27:23.639Z</time></trkpt><trkpt lat="40.8705733" lon="9.6372083"><ele>10.0</ele><time>2026-04-19T07:27:24.646Z</time></trkpt><trkpt lat="40.8705217" lon="9.6374467"><ele>10.0</ele><time>2026-04-19T07:27:25.636Z</time></trkpt><trkpt lat="40.8704733" lon="9.63769"><ele>9.333333333333334</ele><time>2026-04-19T07:27:26.642Z</time></trkpt><trkpt lat="40.8704267" lon="9.6379333"><ele>8.666666666666666</ele><time>2026-04-19T07:27:27.631Z</time></trkpt><trkpt lat="40.8703783" lon="9.6381767"><ele>8.0</ele><time>2026-04-19T07:27:28.639Z</time></trkpt><trkpt lat="40.8703283" lon="9.6384167"><ele>7.666666666666666</ele><time>2026-04-19T07:27:29.628Z</time></trkpt><trkpt lat="40.8702817" lon="9.6386467"><ele>7.333333333333334</ele><time>2026-04-19T07:27:30.636Z</time></trkpt><trkpt lat="40.8702383" lon="9.63886"><ele>7.0</ele><time>2026-04-19T07:27:31.641Z</time></trkpt><trkpt lat="40.8701867" lon="9.639055"><ele>7.0</ele><time>2026-04-19T07:27:32.632Z</time></trkpt><trkpt lat="40.8701283" lon="9.6392367"><ele>7.0</ele><time>2026-04-19T07:27:33.638Z</time></trkpt><trkpt lat="40.870045" lon="9.6393967"><ele>7.0</ele><time>2026-04-19T07:27:34.629Z</time></trkpt><trkpt lat="40.8699383" lon="9.639535"><ele>7.0</ele><time>2026-04-19T07:27:35.635Z</time></trkpt><trkpt lat="40.869815" lon="9.639655"><ele>6.333333333333334</ele><time>2026-04-19T07:27:36.642Z</time></trkpt><trkpt lat="40.8696817" lon="9.6397733"><ele>5.666666666666667</ele><time>2026-04-19T07:27:37.631Z</time></trkpt><trkpt lat="40.8695417" lon="9.6398917"><ele>5.0</ele><time>2026-04-19T07:27:38.637Z</time></trkpt><trkpt lat="40.8693933" lon="9.6400183"><ele>5.0</ele><time>2026-04-19T07:27:39.627Z</time></trkpt><trkpt lat="40.8692417" lon="9.6401483"><ele>5.0</ele><time>2026-04-19T07:27:40.635Z</time></trkpt><trkpt lat="40.8690867" lon="9.640285"><ele>5.0</ele><time>2026-04-19T07:27:41.641Z</time></trkpt><trkpt lat="40.8689317" lon="9.640425"><ele>5.0</ele><time>2026-04-19T07:27:42.631Z</time></trkpt><trkpt lat="40.8687733" lon="9.640565"><ele>5.0</ele><time>2026-04-19T07:27:43.637Z</time></trkpt><trkpt lat="40.8686117" lon="9.6406983"><ele>5.0</ele><time>2026-04-19T07:27:44.628Z</time></trkpt><trkpt lat="40.8684433" lon="9.640815"><ele>6.0</ele><time>2026-04-19T07:27:45.634Z</time></trkpt><trkpt lat="40.8682667" lon="9.640905"><ele>7.0</ele><time>2026-04-19T07:27:46.641Z</time></trkpt><trkpt lat="40.8680833" lon="9.6409767"><ele>8.0</ele><time>2026-04-19T07:27:47.63Z</time></trkpt><trkpt lat="40.867895" lon="9.6410467"><ele>8.0</ele><time>2026-04-19T07:27:48.638Z</time></trkpt><trkpt lat="40.8677033" lon="9.641115"><ele>8.0</ele><time>2026-04-19T07:27:49.626Z</time></trkpt><trkpt lat="40.867515" lon="9.641185"><ele>8.0</ele><time>2026-04-19T07:27:50.634Z</time></trkpt><trkpt lat="40.867325" lon="9.6412533"><ele>8.333333333333332</ele><time>2026-04-19T07:27:51.624Z</time></trkpt><trkpt lat="40.867135" lon="9.6413217"><ele>8.666666666666666</ele><time>2026-04-19T07:27:52.646Z</time></trkpt><trkpt lat="40.8669517" lon="9.6413917"><ele>9.0</ele><time>2026-04-19T07:27:53.636Z</time></trkpt><trkpt lat="40.8667783" lon="9.6414533"><ele>10.0</ele><time>2026-04-19T07:27:54.644Z</time></trkpt><trkpt lat="40.866615" lon="9.6415083"><ele>11.0</ele><time>2026-04-19T07:27:55.634Z</time></trkpt><trkpt lat="40.8664633" lon="9.6415467"><ele>12.0</ele><time>2026-04-19T07:27:56.64Z</time></trkpt><trkpt lat="40.8663167" lon="9.64157"><ele>12.0</ele><time>2026-04-19T07:27:57.646Z</time></trkpt><trkpt lat="40.8661717" lon="9.6415733"><ele>12.0</ele><time>2026-04-19T07:27:58.636Z</time></trkpt><trkpt lat="40.866025" lon="9.6415667"><ele>12.0</ele><time>2026-04-19T07:27:59.643Z</time></trkpt><trkpt lat="40.865875" lon="9.6415533"><ele>12.0</ele><time>2026-04-19T07:28:00.633Z</time></trkpt><trkpt lat="40.865725" lon="9.6415383"><ele>12.0</ele><time>2026-04-19T07:28:01.639Z</time></trkpt><trkpt lat="40.8655833" lon="9.6415233"><ele>12.0</ele><time>2026-04-19T07:28:02.63Z</time></trkpt><trkpt lat="40.8654517" lon="9.6415067"><ele>12.0</ele><time>2026-04-19T07:28:03.636Z</time></trkpt><trkpt lat="40.8653317" lon="9.6414917"><ele>12.0</ele><time>2026-04-19T07:28:04.643Z</time></trkpt><trkpt lat="40.86522" lon="9.6414767"><ele>12.0</ele><time>2026-04-19T07:28:05.633Z</time></trkpt><trkpt lat="40.86512" lon="9.641465"><ele>12.0</ele><time>2026-04-19T07:28:06.639Z</time></trkpt><trkpt lat="40.8650317" lon="9.6414517"><ele>12.0</ele><time>2026-04-19T07:28:07.629Z</time></trkpt><trkpt lat="40.8649567" lon="9.6414267"><ele>12.0</ele><time>2026-04-19T07:28:08.636Z</time></trkpt><trkpt lat="40.8649017" lon="9.6413833"><ele>12.0</ele><time>2026-04-19T07:28:09.642Z</time></trkpt><trkpt lat="40.8648233" lon="9.6412967"><ele>12.0</ele><time>2026-04-19T07:28:11.639Z</time></trkpt><trkpt lat="40.8647683" lon="9.6412383"><ele>12.666666666666666</ele><time>2026-04-19T07:28:13.635Z</time></trkpt><trkpt lat="40.8646883" lon="9.6412367"><ele>13.333333333333332</ele><time>2026-04-19T07:28:16.639Z</time></trkpt><trkpt lat="40.8646117" lon="9.6413"><ele>14.0</ele><time>2026-04-19T07:28:18.635Z</time></trkpt><trkpt lat="40.86455" lon="9.64134"><ele>14.666666666666666</ele><time>2026-04-19T07:28:20.632Z</time></trkpt><trkpt lat="40.8644833" lon="9.6413667"><ele>15.333333333333332</ele><time>2026-04-19T07:28:23.635Z</time></trkpt><trkpt lat="40.8643983" lon="9.641375"><ele>16.0</ele><time>2026-04-19T07:28:25.631Z</time></trkpt><trkpt lat="40.864265" lon="9.6413683"><ele>16.2</ele><time>2026-04-19T07:28:27.628Z</time></trkpt><trkpt lat="40.86418" lon="9.6413583"><ele>16.400000000000002</ele><time>2026-04-19T07:28:28.633Z</time></trkpt><trkpt lat="40.8640833" lon="9.6413483"><ele>16.6</ele><time>2026-04-19T07:28:29.624Z</time></trkpt><trkpt lat="40.8639767" lon="9.641345"><ele>16.8</ele><time>2026-04-19T07:28:30.648Z</time></trkpt><trkpt lat="40.863865" lon="9.6413383"><ele>17.0</ele><time>2026-04-19T07:28:31.637Z</time></trkpt><trkpt lat="40.8637533" lon="9.6413283"><ele>17.0</ele><time>2026-04-19T07:28:32.644Z</time></trkpt><trkpt lat="40.863635" lon="9.6413167"><ele>17.0</ele><time>2026-04-19T07:28:33.634Z</time></trkpt><trkpt lat="40.86351" lon="9.6413133"><ele>17.0</ele><time>2026-04-19T07:28:34.641Z</time></trkpt><trkpt lat="40.8633767" lon="9.6413267"><ele>17.0</ele><time>2026-04-19T07:28:35.63Z</time></trkpt><trkpt lat="40.8632383" lon="9.6413583"><ele>17.75</ele><time>2026-04-19T07:28:36.636Z</time></trkpt><trkpt lat="40.8630983" lon="9.6414083"><ele>18.5</ele><time>2026-04-19T07:28:37.644Z</time></trkpt><trkpt lat="40.8629567" lon="9.6414683"><ele>19.25</ele><time>2026-04-19T07:28:38.634Z</time></trkpt><trkpt lat="40.8628117" lon="9.6415217"><ele>20.0</ele><time>2026-04-19T07:28:39.64Z</time></trkpt><trkpt lat="40.8626667" lon="9.6415717"><ele>21.666666666666668</ele><time>2026-04-19T07:28:40.63Z</time></trkpt><trkpt lat="40.8625217" lon="9.6416233"><ele>23.333333333333336</ele><time>2026-04-19T07:28:41.636Z</time></trkpt><trkpt lat="40.8623767" lon="9.641675"><ele>25.0</ele><time>2026-04-19T07:28:42.643Z</time></trkpt><trkpt lat="40.86223" lon="9.6417333"><ele>25.0</ele><time>2026-04-19T07:28:43.633Z</time></trkpt><trkpt lat="40.86208" lon="9.641795"><ele>25.0</ele><time>2026-04-19T07:28:44.64Z</time></trkpt><trkpt lat="40.861925" lon="9.6418567"><ele>25.0</ele><time>2026-04-19T07:28:45.63Z</time></trkpt><trkpt lat="40.86177" lon="9.641915"><ele>25.75</ele><time>2026-04-19T07:28:46.636Z</time></trkpt><trkpt lat="40.8616233" lon="9.6419633"><ele>26.5</ele><time>2026-04-19T07:28:47.643Z</time></trkpt><trkpt lat="40.8614833" lon="9.642"><ele>27.25</ele><time>2026-04-19T07:28:48.633Z</time></trkpt><trkpt lat="40.861345" lon="9.64203"><ele>28.0</ele><time>2026-04-19T07:28:49.639Z</time></trkpt><trkpt lat="40.861205" lon="9.6420533"><ele>26.0</ele><time>2026-04-19T07:28:50.629Z</time></trkpt><trkpt lat="40.8610617" lon="9.6420733"><ele>24.0</ele><time>2026-04-19T07:28:51.635Z</time></trkpt><trkpt lat="40.8609133" lon="9.6420983"><ele>22.0</ele><time>2026-04-19T07:28:52.643Z</time></trkpt><trkpt lat="40.86076" lon="9.6421233"><ele>20.0</ele><time>2026-04-19T07:28:53.632Z</time></trkpt><trkpt lat="40.860605" lon="9.6421483"><ele>19.0</ele><time>2026-04-19T07:28:54.639Z</time></trkpt><trkpt lat="40.8604467" lon="9.642175"><ele>18.0</ele><time>2026-04-19T07:28:55.629Z</time></trkpt><trkpt lat="40.8602817" lon="9.6422"><ele>17.0</ele><time>2026-04-19T07:28:56.636Z</time></trkpt><trkpt lat="40.860115" lon="9.6422283"><ele>16.666666666666668</ele><time>2026-04-19T07:28:57.624Z</time></trkpt><trkpt lat="40.859945" lon="9.6422517"><ele>16.333333333333332</ele><time>2026-04-19T07:28:58.632Z</time></trkpt><trkpt lat="40.859775" lon="9.6422767"><ele>16.0</ele><time>2026-04-19T07:28:59.639Z</time></trkpt><trkpt lat="40.8596017" lon="9.6423033"><ele>16.0</ele><time>2026-04-19T07:29:00.629Z</time></trkpt><trkpt lat="40.859435" lon="9.6423283"><ele>16.0</ele><time>2026-04-19T07:29:01.635Z</time></trkpt><trkpt lat="40.859275" lon="9.6423583"><ele>16.0</ele><time>2026-04-19T07:29:02.624Z</time></trkpt><trkpt lat="40.8591167" lon="9.6424033"><ele>15.666666666666666</ele><time>2026-04-19T07:29:03.647Z</time></trkpt><trkpt lat="40.85896" lon="9.6424583"><ele>15.333333333333332</ele><time>2026-04-19T07:29:04.637Z</time></trkpt><trkpt lat="40.858805" lon="9.6425283"><ele>15.0</ele><time>2026-04-19T07:29:05.627Z</time></trkpt><trkpt lat="40.8586517" lon="9.6426083"><ele>15.0</ele><time>2026-04-19T07:29:06.635Z</time></trkpt><trkpt lat="40.8584983" lon="9.6427017"><ele>15.0</ele><time>2026-04-19T07:29:07.625Z</time></trkpt><trkpt lat="40.8583433" lon="9.6427933"><ele>15.0</ele><time>2026-04-19T07:29:08.631Z</time></trkpt><trkpt lat="40.858185" lon="9.642885"><ele>14.0</ele><time>2026-04-19T07:29:09.638Z</time></trkpt><trkpt lat="40.8580283" lon="9.6429817"><ele>13.0</ele><time>2026-04-19T07:29:10.644Z</time></trkpt><trkpt lat="40.8578733" lon="9.643075"><ele>12.0</ele><time>2026-04-19T07:29:11.633Z</time></trkpt><trkpt lat="40.8577283" lon="9.6431617"><ele>12.0</ele><time>2026-04-19T07:29:12.641Z</time></trkpt><trkpt lat="40.857595" lon="9.6432417"><ele>12.0</ele><time>2026-04-19T07:29:13.631Z</time></trkpt><trkpt lat="40.857475" lon="9.6433167"><ele>12.0</ele><time>2026-04-19T07:29:14.638Z</time></trkpt><trkpt lat="40.8573683" lon="9.6433833"><ele>12.0</ele><time>2026-04-19T07:29:15.644Z</time></trkpt><trkpt lat="40.8572667" lon="9.6434333"><ele>12.0</ele><time>2026-04-19T07:29:16.633Z</time></trkpt><trkpt lat="40.8571683" lon="9.6434667"><ele>12.0</ele><time>2026-04-19T07:29:17.641Z</time></trkpt><trkpt lat="40.8570733" lon="9.6434883"><ele>12.0</ele><time>2026-04-19T07:29:18.63Z</time></trkpt><trkpt lat="40.8569817" lon="9.6435217"><ele>12.0</ele><time>2026-04-19T07:29:19.637Z</time></trkpt><trkpt lat="40.8569033" lon="9.64358"><ele>12.0</ele><time>2026-04-19T07:29:20.644Z</time></trkpt><trkpt lat="40.8568283" lon="9.6436567"><ele>11.2</ele><time>2026-04-19T07:29:21.634Z</time></trkpt><trkpt lat="40.8567467" lon="9.6437367"><ele>10.399999999999999</ele><time>2026-04-19T07:29:22.639Z</time></trkpt><trkpt lat="40.8566533" lon="9.6438117"><ele>9.600000000000001</ele><time>2026-04-19T07:29:23.63Z</time></trkpt><trkpt lat="40.8565517" lon="9.64388"><ele>8.8</ele><time>2026-04-19T07:29:24.637Z</time></trkpt><trkpt lat="40.856445" lon="9.6439467"><ele>8.0</ele><time>2026-04-19T07:29:25.643Z</time></trkpt><trkpt lat="40.8563317" lon="9.6440167"><ele>8.0</ele><time>2026-04-19T07:29:26.633Z</time></trkpt><trkpt lat="40.856215" lon="9.6440883"><ele>8.0</ele><time>2026-04-19T07:29:27.64Z</time></trkpt><trkpt lat="40.8561" lon="9.6441583"><ele>8.0</ele><time>2026-04-19T07:29:28.63Z</time></trkpt><trkpt lat="40.855995" lon="9.6442233"><ele>8.0</ele><time>2026-04-19T07:29:29.636Z</time></trkpt><trkpt lat="40.8558983" lon="9.6442833"><ele>7.999999999999999</ele><time>2026-04-19T07:29:30.626Z</time></trkpt><trkpt lat="40.8558117" lon="9.6443367"><ele>8.0</ele><time>2026-04-19T07:29:31.633Z</time></trkpt><trkpt lat="40.8557333" lon="9.64438"><ele>8.0</ele><time>2026-04-19T07:29:32.639Z</time></trkpt><trkpt lat="40.855665" lon="9.6444183"><ele>8.0</ele><time>2026-04-19T07:29:33.628Z</time></trkpt><trkpt lat="40.8556033" lon="9.644455"><ele>7.999999999999999</ele><time>2026-04-19T07:29:34.636Z</time></trkpt><trkpt lat="40.85554" lon="9.6444967"><ele>8.0</ele><time>2026-04-19T07:29:35.625Z</time></trkpt><trkpt lat="40.8554717" lon="9.6445383"><ele>7.800000000000001</ele><time>2026-04-19T07:29:36.632Z</time></trkpt><trkpt lat="40.8553967" lon="9.644585"><ele>7.6000000000000005</ele><time>2026-04-19T07:29:37.639Z</time></trkpt><trkpt lat="40.855315" lon="9.6446333"><ele>7.3999999999999995</ele><time>2026-04-19T07:29:38.628Z</time></trkpt><trkpt lat="40.8552267" lon="9.6446883"><ele>7.199999999999999</ele><time>2026-04-19T07:29:39.635Z</time></trkpt><trkpt lat="40.8551317" lon="9.6447467"><ele>7.0</ele><time>2026-04-19T07:29:40.625Z</time></trkpt><trkpt lat="40.8550283" lon="9.64481"><ele>7.0</ele><time>2026-04-19T07:29:41.632Z</time></trkpt><trkpt lat="40.8549183" lon="9.6448767"><ele>7.0</ele><time>2026-04-19T07:29:42.639Z</time></trkpt><trkpt lat="40.8548017" lon="9.6449483"><ele>7.0</ele><time>2026-04-19T07:29:43.645Z</time></trkpt><trkpt lat="40.8546783" lon="9.6450233"><ele>7.0</ele><time>2026-04-19T07:29:44.634Z</time></trkpt><trkpt lat="40.85455" lon="9.6451017"><ele>7.0</ele><time>2026-04-19T07:29:45.641Z</time></trkpt><trkpt lat="40.8544167" lon="9.6451817"><ele>7.0</ele><time>2026-04-19T07:29:46.631Z</time></trkpt><trkpt lat="40.85428" lon="9.645265"><ele>7.0</ele><time>2026-04-19T07:29:47.638Z</time></trkpt><trkpt lat="40.8541383" lon="9.6453517"><ele>7.0</ele><time>2026-04-19T07:29:48.645Z</time></trkpt><trkpt lat="40.8539933" lon="9.6454383"><ele>7.0</ele><time>2026-04-19T07:29:49.635Z</time></trkpt><trkpt lat="40.8538467" lon="9.6455267"><ele>7.0</ele><time>2026-04-19T07:29:50.641Z</time></trkpt><trkpt lat="40.8536967" lon="9.6456167"><ele>7.0</ele><time>2026-04-19T07:29:51.631Z</time></trkpt><trkpt lat="40.853545" lon="9.6457017"><ele>7.0</ele><time>2026-04-19T07:29:52.637Z</time></trkpt><trkpt lat="40.8533917" lon="9.6457783"><ele>7.0</ele><time>2026-04-19T07:29:53.644Z</time></trkpt><trkpt lat="40.853235" lon="9.6458433"><ele>7.666666666666667</ele><time>2026-04-19T07:29:54.633Z</time></trkpt><trkpt lat="40.8530767" lon="9.645895"><ele>8.333333333333334</ele><time>2026-04-19T07:29:55.641Z</time></trkpt><trkpt lat="40.852915" lon="9.6459417"><ele>9.0</ele><time>2026-04-19T07:29:56.63Z</time></trkpt><trkpt lat="40.85275" lon="9.6459867"><ele>8.333333333333334</ele><time>2026-04-19T07:29:57.638Z</time></trkpt><trkpt lat="40.8525833" lon="9.6460333"><ele>7.666666666666667</ele><time>2026-04-19T07:29:58.644Z</time></trkpt><trkpt lat="40.8524133" lon="9.6460817"><ele>7.0</ele><time>2026-04-19T07:29:59.634Z</time></trkpt><trkpt lat="40.8522417" lon="9.6461317"><ele>7.0</ele><time>2026-04-19T07:30:00.641Z</time></trkpt><trkpt lat="40.8520633" lon="9.646185"><ele>7.0</ele><time>2026-04-19T07:30:01.629Z</time></trkpt><trkpt lat="40.8518817" lon="9.6462383"><ele>7.0</ele><time>2026-04-19T07:30:02.637Z</time></trkpt><trkpt lat="40.8516983" lon="9.64629"><ele>7.0</ele><time>2026-04-19T07:30:03.644Z</time></trkpt><trkpt lat="40.8515133" lon="9.6463433"><ele>7.0</ele><time>2026-04-19T07:30:04.634Z</time></trkpt><trkpt lat="40.8513267" lon="9.6464"><ele>7.0</ele><time>2026-04-19T07:30:05.64Z</time></trkpt><trkpt lat="40.8511367" lon="9.6464567"><ele>7.333333333333334</ele><time>2026-04-19T07:30:06.629Z</time></trkpt><trkpt lat="40.850945" lon="9.646515"><ele>7.666666666666666</ele><time>2026-04-19T07:30:07.637Z</time></trkpt><trkpt lat="40.8507517" lon="9.646575"><ele>8.0</ele><time>2026-04-19T07:30:08.626Z</time></trkpt><trkpt lat="40.8505583" lon="9.646635"><ele>8.0</ele><time>2026-04-19T07:30:09.633Z</time></trkpt><trkpt lat="40.850365" lon="9.6466933"><ele>8.0</ele><time>2026-04-19T07:30:10.64Z</time></trkpt><trkpt lat="40.8501683" lon="9.64675"><ele>8.0</ele><time>2026-04-19T07:30:11.629Z</time></trkpt><trkpt lat="40.8499733" lon="9.6468033"><ele>7.0</ele><time>2026-04-19T07:30:12.636Z</time></trkpt><trkpt lat="40.8497767" lon="9.64686"><ele>6.0</ele><time>2026-04-19T07:30:13.626Z</time></trkpt><trkpt lat="40.8495783" lon="9.6469133"><ele>5.0</ele><time>2026-04-19T07:30:14.632Z</time></trkpt><trkpt lat="40.84938" lon="9.6469683"><ele>5.0</ele><time>2026-04-19T07:30:15.639Z</time></trkpt><trkpt lat="40.8491867" lon="9.6470233"><ele>5.0</ele><time>2026-04-19T07:30:16.628Z</time></trkpt><trkpt lat="40.849005" lon="9.647075"><ele>5.0</ele><time>2026-04-19T07:30:17.636Z</time></trkpt><trkpt lat="40.848835" lon="9.6471217"><ele>5.0</ele><time>2026-04-19T07:30:18.626Z</time></trkpt><trkpt lat="40.8486783" lon="9.6471667"><ele>5.0</ele><time>2026-04-19T07:30:19.632Z</time></trkpt><trkpt lat="40.8485333" lon="9.6472067"><ele>5.0</ele><time>2026-04-19T07:30:20.639Z</time></trkpt><trkpt lat="40.848395" lon="9.6472433"><ele>5.75</ele><time>2026-04-19T07:30:21.646Z</time></trkpt><trkpt lat="40.8482683" lon="9.6472783"><ele>6.5</ele><time>2026-04-19T07:30:22.636Z</time></trkpt><trkpt lat="40.8481517" lon="9.6473117"><ele>7.25</ele><time>2026-04-19T07:30:23.642Z</time></trkpt><trkpt lat="40.84804" lon="9.647345"><ele>8.0</ele><time>2026-04-19T07:30:24.632Z</time></trkpt><trkpt lat="40.8479367" lon="9.6473717"><ele>7.999999999999999</ele><time>2026-04-19T07:30:25.638Z</time></trkpt><trkpt lat="40.8478367" lon="9.6473967"><ele>8.0</ele><time>2026-04-19T07:30:26.644Z</time></trkpt><trkpt lat="40.8477467" lon="9.64742"><ele>8.0</ele><time>2026-04-19T07:30:27.635Z</time></trkpt><trkpt lat="40.8476617" lon="9.6474433"><ele>8.0</ele><time>2026-04-19T07:30:28.641Z</time></trkpt><trkpt lat="40.8475833" lon="9.6474667"><ele>7.999999999999999</ele><time>2026-04-19T07:30:29.632Z</time></trkpt><trkpt lat="40.8475067" lon="9.6474883"><ele>8.0</ele><time>2026-04-19T07:30:30.638Z</time></trkpt><trkpt lat="40.84743" lon="9.6475083"><ele>8.333333333333332</ele><time>2026-04-19T07:30:31.645Z</time></trkpt><trkpt lat="40.8473533" lon="9.64753"><ele>8.666666666666666</ele><time>2026-04-19T07:30:32.634Z</time></trkpt><trkpt lat="40.8472833" lon="9.64755"><ele>9.0</ele><time>2026-04-19T07:30:33.641Z</time></trkpt><trkpt lat="40.84718" lon="9.64755"><ele>9.333333333333334</ele><time>2026-04-19T07:30:35.637Z</time></trkpt><trkpt lat="40.8471233" lon="9.6474933"><ele>9.666666666666668</ele><time>2026-04-19T07:30:37.634Z</time></trkpt><trkpt lat="40.8471233" lon="9.6474083"><ele>10.0</ele><time>2026-04-19T07:30:40.638Z</time></trkpt><trkpt lat="40.8471617" lon="9.6473233"><ele>10.0</ele><time>2026-04-19T07:30:43.641Z</time></trkpt><trkpt lat="40.8472" lon="9.647235"><ele>10.0</ele><time>2026-04-19T07:30:46.627Z</time></trkpt><trkpt lat="40.8473017" lon="9.6472383"><ele>10.0</ele><time>2026-04-19T07:31:57.628Z</time></trkpt><trkpt lat="40.847375" lon="9.647245"><ele>10.0</ele><time>2026-04-19T07:31:59.641Z</time></trkpt><trkpt lat="40.8474467" lon="9.6472267"><ele>10.0</ele><time>2026-04-19T07:32:02.628Z</time></trkpt><trkpt lat="40.8474833" lon="9.647125"><ele>10.0</ele><time>2026-04-19T07:32:07.626Z</time></trkpt><trkpt lat="40.8474417" lon="9.64704"><ele>10.0</ele><time>2026-04-19T07:32:33.631Z</time></trkpt></trkseg><trkseg><trkpt lat="40.847315" lon="9.6469833"><ele>10.5</ele><time>2026-04-19T08:07:13.634Z</time></trkpt><trkpt lat="40.8472683" lon="9.6469167"><ele>11.0</ele><time>2026-04-19T08:07:33.633Z</time></trkpt><trkpt lat="40.8472767" lon="9.6468317"><ele>11.5</ele><time>2026-04-19T08:07:35.628Z</time></trkpt><trkpt lat="40.8473083" lon="9.6467367"><ele>12.0</ele><time>2026-04-19T08:07:37.625Z</time></trkpt><trkpt lat="40.847335" lon="9.6466267"><ele>12.499999999999998</ele><time>2026-04-19T08:07:39.622Z</time></trkpt><trkpt lat="40.847365" lon="9.64649"><ele>13.0</ele><time>2026-04-19T08:07:41.634Z</time></trkpt><trkpt lat="40.8474017" lon="9.646345"><ele>12.999999999999998</ele><time>2026-04-19T08:07:43.632Z</time></trkpt><trkpt lat="40.8474217" lon="9.646265"><ele>13.0</ele><time>2026-04-19T08:07:44.622Z</time></trkpt><trkpt lat="40.8474733" lon="9.6461117"><ele>13.0</ele><time>2026-04-19T08:07:46.635Z</time></trkpt><trkpt lat="40.847505" lon="9.6460217"><ele>13.0</ele><time>2026-04-19T08:07:47.641Z</time></trkpt><trkpt lat="40.8475417" lon="9.6459333"><ele>12.999999999999998</ele><time>2026-04-19T08:07:48.631Z</time></trkpt><trkpt lat="40.847585" lon="9.6458517"><ele>13.0</ele><time>2026-04-19T08:07:49.638Z</time></trkpt><trkpt lat="40.84763" lon="9.6457767"><ele>12.8</ele><time>2026-04-19T08:07:50.628Z</time></trkpt><trkpt lat="40.8476683" lon="9.645705"><ele>12.600000000000001</ele><time>2026-04-19T08:07:51.633Z</time></trkpt><trkpt lat="40.847735" lon="9.6455767"><ele>12.399999999999999</ele><time>2026-04-19T08:07:53.631Z</time></trkpt><trkpt lat="40.8477917" lon="9.6454583"><ele>12.2</ele><time>2026-04-19T08:07:55.627Z</time></trkpt><trkpt lat="40.8478417" lon="9.6453283"><ele>12.0</ele><time>2026-04-19T08:07:57.641Z</time></trkpt><trkpt lat="40.847875" lon="9.6451933"><ele>12.0</ele><time>2026-04-19T08:07:59.637Z</time></trkpt><trkpt lat="40.8479017" lon="9.6450767"><ele>12.0</ele><time>2026-04-19T08:08:01.633Z</time></trkpt><trkpt lat="40.8479317" lon="9.6449467"><ele>12.0</ele><time>2026-04-19T08:08:03.63Z</time></trkpt><trkpt lat="40.8479733" lon="9.6447867"><ele>12.0</ele><time>2026-04-19T08:08:05.626Z</time></trkpt><trkpt lat="40.8479933" lon="9.6446967"><ele>12.0</ele><time>2026-04-19T08:08:06.632Z</time></trkpt><trkpt lat="40.8480067" lon="9.6445933"><ele>12.0</ele><time>2026-04-19T08:08:07.623Z</time></trkpt><trkpt lat="40.84801" lon="9.6444817"><ele>12.0</ele><time>2026-04-19T08:08:08.629Z</time></trkpt><trkpt lat="40.84801" lon="9.6443633"><ele>12.0</ele><time>2026-04-19T08:08:09.636Z</time></trkpt><trkpt lat="40.8480017" lon="9.6442417"><ele>12.0</ele><time>2026-04-19T08:08:10.626Z</time></trkpt><trkpt lat="40.84799" lon="9.6441233"><ele>12.0</ele><time>2026-04-19T08:08:11.633Z</time></trkpt><trkpt lat="40.8479717" lon="9.64401"><ele>12.0</ele><time>2026-04-19T08:08:12.623Z</time></trkpt><trkpt lat="40.8479533" lon="9.6439033"><ele>12.0</ele><time>2026-04-19T08:08:13.628Z</time></trkpt><trkpt lat="40.8479333" lon="9.6437983"><ele>12.0</ele><time>2026-04-19T08:08:14.636Z</time></trkpt><trkpt lat="40.8479167" lon="9.6436933"><ele>12.0</ele><time>2026-04-19T08:08:15.625Z</time></trkpt><trkpt lat="40.8479033" lon="9.6435867"><ele>12.0</ele><time>2026-04-19T08:08:16.632Z</time></trkpt><trkpt lat="40.84789" lon="9.6434783"><ele>12.0</ele><time>2026-04-19T08:08:17.622Z</time></trkpt><trkpt lat="40.8478767" lon="9.64337"><ele>12.0</ele><time>2026-04-19T08:08:18.646Z</time></trkpt><trkpt lat="40.8478667" lon="9.64327"><ele>12.166666666666666</ele><time>2026-04-19T08:08:19.636Z</time></trkpt><trkpt lat="40.847865" lon="9.64317"><ele>12.333333333333332</ele><time>2026-04-19T08:08:20.625Z</time></trkpt><trkpt lat="40.8478717" lon="9.6430683"><ele>12.5</ele><time>2026-04-19T08:08:21.631Z</time></trkpt><trkpt lat="40.84789" lon="9.6429667"><ele>12.666666666666666</ele><time>2026-04-19T08:08:22.622Z</time></trkpt><trkpt lat="40.8479133" lon="9.6428633"><ele>12.833333333333332</ele><time>2026-04-19T08:08:23.629Z</time></trkpt><trkpt lat="40.84794" lon="9.6427583"><ele>13.0</ele><time>2026-04-19T08:08:24.634Z</time></trkpt><trkpt lat="40.8479683" lon="9.6426517"><ele>13.600000000000001</ele><time>2026-04-19T08:08:25.642Z</time></trkpt><trkpt lat="40.8479933" lon="9.642535"><ele>14.200000000000001</ele><time>2026-04-19T08:08:26.631Z</time></trkpt><trkpt lat="40.848015" lon="9.6424167"><ele>14.8</ele><time>2026-04-19T08:08:27.638Z</time></trkpt><trkpt lat="40.8480317" lon="9.6422983"><ele>15.4</ele><time>2026-04-19T08:08:28.628Z</time></trkpt><trkpt lat="40.848045" lon="9.64218"><ele>16.0</ele><time>2026-04-19T08:08:29.634Z</time></trkpt><trkpt lat="40.8480533" lon="9.642065"><ele>16.666666666666664</ele><time>2026-04-19T08:08:30.641Z</time></trkpt><trkpt lat="40.84806" lon="9.641955"><ele>17.333333333333332</ele><time>2026-04-19T08:08:31.63Z</time></trkpt><trkpt lat="40.848065" lon="9.6418517"><ele>18.0</ele><time>2026-04-19T08:08:32.638Z</time></trkpt><trkpt lat="40.8480683" lon="9.6417533"><ele>18.666666666666668</ele><time>2026-04-19T08:08:33.627Z</time></trkpt><trkpt lat="40.8480617" lon="9.64165"><ele>19.333333333333336</ele><time>2026-04-19T08:08:34.634Z</time></trkpt><trkpt lat="40.8480483" lon="9.6415433"><ele>20.0</ele><time>2026-04-19T08:08:35.641Z</time></trkpt><trkpt lat="40.8480283" lon="9.641435"><ele>20.0</ele><time>2026-04-19T08:08:36.631Z</time></trkpt><trkpt lat="40.8480017" lon="9.6413367"><ele>20.0</ele><time>2026-04-19T08:08:37.638Z</time></trkpt><trkpt lat="40.8479733" lon="9.6412417"><ele>20.0</ele><time>2026-04-19T08:08:38.626Z</time></trkpt><trkpt lat="40.8479333" lon="9.6411583"><ele>20.0</ele><time>2026-04-19T08:08:39.634Z</time></trkpt><trkpt lat="40.8478933" lon="9.6410867"><ele>20.0</ele><time>2026-04-19T08:08:40.64Z</time></trkpt><trkpt lat="40.8478467" lon="9.6410133"><ele>20.0</ele><time>2026-04-19T08:08:41.63Z</time></trkpt><trkpt lat="40.8478033" lon="9.6409367"><ele>20.0</ele><time>2026-04-19T08:08:42.637Z</time></trkpt><trkpt lat="40.8477717" lon="9.6408483"><ele>20.285714285714285</ele><time>2026-04-19T08:08:43.626Z</time></trkpt><trkpt lat="40.8477567" lon="9.6407517"><ele>20.571428571428573</ele><time>2026-04-19T08:08:44.634Z</time></trkpt><trkpt lat="40.847765" lon="9.640655"><ele>20.857142857142858</ele><time>2026-04-19T08:08:45.623Z</time></trkpt><trkpt lat="40.8478017" lon="9.640575"><ele>21.142857142857142</ele><time>2026-04-19T08:08:46.63Z</time></trkpt><trkpt lat="40.8478467" lon="9.640505"><ele>21.428571428571427</ele><time>2026-04-19T08:08:47.637Z</time></trkpt><trkpt lat="40.84789" lon="9.640435"><ele>21.714285714285715</ele><time>2026-04-19T08:08:48.627Z</time></trkpt><trkpt lat="40.8479283" lon="9.6403517"><ele>22.0</ele><time>2026-04-19T08:08:49.633Z</time></trkpt><trkpt lat="40.8479667" lon="9.6402667"><ele>22.571428571428573</ele><time>2026-04-19T08:08:50.623Z</time></trkpt><trkpt lat="40.848" lon="9.64017"><ele>23.142857142857142</ele><time>2026-04-19T08:08:51.629Z</time></trkpt><trkpt lat="40.8480233" lon="9.6400667"><ele>23.714285714285715</ele><time>2026-04-19T08:08:52.636Z</time></trkpt><trkpt lat="40.8480367" lon="9.63997"><ele>24.285714285714285</ele><time>2026-04-19T08:08:53.625Z</time></trkpt><trkpt lat="40.8480367" lon="9.6398767"><ele>24.857142857142858</ele><time>2026-04-19T08:08:54.632Z</time></trkpt><trkpt lat="40.84803" lon="9.639785"><ele>25.428571428571427</ele><time>2026-04-19T08:08:55.623Z</time></trkpt><trkpt lat="40.8480233" lon="9.6396917"><ele>26.0</ele><time>2026-04-19T08:08:56.628Z</time></trkpt><trkpt lat="40.84802" lon="9.6396"><ele>25.999999999999996</ele><time>2026-04-19T08:08:57.636Z</time></trkpt><trkpt lat="40.848015" lon="9.6395083"><ele>26.0</ele><time>2026-04-19T08:08:58.642Z</time></trkpt><trkpt lat="40.848005" lon="9.6394183"><ele>26.0</ele><time>2026-04-19T08:08:59.632Z</time></trkpt><trkpt lat="40.8479833" lon="9.639325"><ele>26.0</ele><time>2026-04-19T08:09:00.639Z</time></trkpt><trkpt lat="40.8479583" lon="9.6392317"><ele>25.999999999999996</ele><time>2026-04-19T08:09:01.629Z</time></trkpt><trkpt lat="40.8479333" lon="9.6391317"><ele>26.0</ele><time>2026-04-19T08:09:02.635Z</time></trkpt><trkpt lat="40.847905" lon="9.6390233"><ele>25.833333333333332</ele><time>2026-04-19T08:09:03.642Z</time></trkpt><trkpt lat="40.847875" lon="9.6389117"><ele>25.666666666666664</ele><time>2026-04-19T08:09:04.631Z</time></trkpt><trkpt lat="40.8478433" lon="9.6388033"><ele>25.5</ele><time>2026-04-19T08:09:05.639Z</time></trkpt><trkpt lat="40.847815" lon="9.638695"><ele>25.333333333333336</ele><time>2026-04-19T08:09:06.629Z</time></trkpt><trkpt lat="40.8477867" lon="9.6385867"><ele>25.166666666666668</ele><time>2026-04-19T08:09:07.635Z</time></trkpt><trkpt lat="40.8477567" lon="9.63848"><ele>25.0</ele><time>2026-04-19T08:09:08.641Z</time></trkpt><trkpt lat="40.84772" lon="9.6383717"><ele>24.8</ele><time>2026-04-19T08:09:09.631Z</time></trkpt><trkpt lat="40.847675" lon="9.63826"><ele>24.6</ele><time>2026-04-19T08:09:10.637Z</time></trkpt><trkpt lat="40.8476217" lon="9.638145"><ele>24.4</ele><time>2026-04-19T08:09:11.628Z</time></trkpt><trkpt lat="40.8475667" lon="9.63804"><ele>24.2</ele><time>2026-04-19T08:09:12.635Z</time></trkpt><trkpt lat="40.847515" lon="9.637935"><ele>24.0</ele><time>2026-04-19T08:09:13.64Z</time></trkpt><trkpt lat="40.8474683" lon="9.6378317"><ele>25.0</ele><time>2026-04-19T08:09:14.63Z</time></trkpt><trkpt lat="40.84742" lon="9.6377333"><ele>26.0</ele><time>2026-04-19T08:09:15.637Z</time></trkpt><trkpt lat="40.8473733" lon="9.637635"><ele>27.0</ele><time>2026-04-19T08:09:16.628Z</time></trkpt><trkpt lat="40.8473233" lon="9.63753"><ele>28.0</ele><time>2026-04-19T08:09:17.634Z</time></trkpt><trkpt lat="40.8472683" lon="9.6374183"><ele>29.0</ele><time>2026-04-19T08:09:18.624Z</time></trkpt><trkpt lat="40.84721" lon="9.6373017"><ele>29.0</ele><time>2026-04-19T08:09:19.631Z</time></trkpt><trkpt lat="40.8471467" lon="9.63718"><ele>29.0</ele><time>2026-04-19T08:09:20.637Z</time></trkpt><trkpt lat="40.8470783" lon="9.6370517"><ele>29.0</ele><time>2026-04-19T08:09:21.627Z</time></trkpt><trkpt lat="40.8470117" lon="9.6369217"><ele>29.0</ele><time>2026-04-19T08:09:22.633Z</time></trkpt><trkpt lat="40.8469467" lon="9.63679"><ele>28.75</ele><time>2026-04-19T08:09:23.624Z</time></trkpt><trkpt lat="40.8468817" lon="9.6366583"><ele>28.5</ele><time>2026-04-19T08:09:24.63Z</time></trkpt><trkpt lat="40.8468117" lon="9.6365217"><ele>28.25</ele><time>2026-04-19T08:09:25.637Z</time></trkpt><trkpt lat="40.84674" lon="9.6363833"><ele>28.0</ele><time>2026-04-19T08:09:26.626Z</time></trkpt><trkpt lat="40.8466667" lon="9.63624"><ele>29.0</ele><time>2026-04-19T08:09:27.634Z</time></trkpt><trkpt lat="40.8465917" lon="9.636095"><ele>30.0</ele><time>2026-04-19T08:09:28.623Z</time></trkpt><trkpt lat="40.846515" lon="9.6359467"><ele>31.0</ele><time>2026-04-19T08:09:29.63Z</time></trkpt><trkpt lat="40.8464367" lon="9.6357967"><ele>32.0</ele><time>2026-04-19T08:09:30.637Z</time></trkpt><trkpt lat="40.8463617" lon="9.6356433"><ele>32.0</ele><time>2026-04-19T08:09:31.627Z</time></trkpt><trkpt lat="40.8462867" lon="9.6354917"><ele>32.0</ele><time>2026-04-19T08:09:32.632Z</time></trkpt><trkpt lat="40.8462117" lon="9.63534"><ele>32.0</ele><time>2026-04-19T08:09:33.623Z</time></trkpt><trkpt lat="40.8461367" lon="9.6351833"><ele>32.0</ele><time>2026-04-19T08:09:34.629Z</time></trkpt><trkpt lat="40.84606" lon="9.635025"><ele>31.75</ele><time>2026-04-19T08:09:35.636Z</time></trkpt><trkpt lat="40.8459817" lon="9.6348667"><ele>31.5</ele><time>2026-04-19T08:09:36.643Z</time></trkpt><trkpt lat="40.8459033" lon="9.6347017"><ele>31.25</ele><time>2026-04-19T08:09:37.632Z</time></trkpt><trkpt lat="40.845825" lon="9.6345367"><ele>31.0</ele><time>2026-04-19T08:09:38.64Z</time></trkpt><trkpt lat="40.845745" lon="9.63437"><ele>32.66666666666667</ele><time>2026-04-19T08:09:39.629Z</time></trkpt><trkpt lat="40.84566" lon="9.6342017"><ele>34.333333333333336</ele><time>2026-04-19T08:09:40.635Z</time></trkpt><trkpt lat="40.8455767" lon="9.634035"><ele>36.0</ele><time>2026-04-19T08:09:41.642Z</time></trkpt><trkpt lat="40.8454933" lon="9.6338717"><ele>36.0</ele><time>2026-04-19T08:09:42.632Z</time></trkpt><trkpt lat="40.845415" lon="9.6337133"><ele>36.0</ele><time>2026-04-19T08:09:43.639Z</time></trkpt><trkpt lat="40.8453367" lon="9.633555"><ele>36.0</ele><time>2026-04-19T08:09:44.629Z</time></trkpt><trkpt lat="40.8452583" lon="9.6333983"><ele>36.0</ele><time>2026-04-19T08:09:45.636Z</time></trkpt><trkpt lat="40.8451817" lon="9.6332383"><ele>37.0</ele><time>2026-04-19T08:09:46.625Z</time></trkpt><trkpt lat="40.8451083" lon="9.633075"><ele>38.0</ele><time>2026-04-19T08:09:47.631Z</time></trkpt><trkpt lat="40.8450417" lon="9.6329133"><ele>39.0</ele><time>2026-04-19T08:09:48.639Z</time></trkpt><trkpt lat="40.84498" lon="9.6327567"><ele>40.0</ele><time>2026-04-19T08:09:49.628Z</time></trkpt><trkpt lat="40.844925" lon="9.6326117"><ele>40.0</ele><time>2026-04-19T08:09:50.635Z</time></trkpt><trkpt lat="40.8448783" lon="9.632475"><ele>40.0</ele><time>2026-04-19T08:09:51.624Z</time></trkpt><trkpt lat="40.844835" lon="9.6323467"><ele>40.0</ele><time>2026-04-19T08:09:52.632Z</time></trkpt><trkpt lat="40.8448017" lon="9.6322233"><ele>40.0</ele><time>2026-04-19T08:09:53.637Z</time></trkpt><trkpt lat="40.8447683" lon="9.6320917"><ele>40.0</ele><time>2026-04-19T08:09:54.628Z</time></trkpt><trkpt lat="40.8447367" lon="9.6319533"><ele>39.0</ele><time>2026-04-19T08:09:55.635Z</time></trkpt><trkpt lat="40.8447033" lon="9.6318067"><ele>38.0</ele><time>2026-04-19T08:09:56.625Z</time></trkpt><trkpt lat="40.844675" lon="9.6316583"><ele>37.0</ele><time>2026-04-19T08:09:57.63Z</time></trkpt><trkpt lat="40.8446517" lon="9.6315033"><ele>36.0</ele><time>2026-04-19T08:09:58.637Z</time></trkpt><trkpt lat="40.8446333" lon="9.6313417"><ele>36.0</ele><time>2026-04-19T08:09:59.628Z</time></trkpt><trkpt lat="40.8446167" lon="9.6311783"><ele>36.0</ele><time>2026-04-19T08:10:00.634Z</time></trkpt><trkpt lat="40.8446033" lon="9.63101"><ele>36.0</ele><time>2026-04-19T08:10:01.624Z</time></trkpt><trkpt lat="40.8445933" lon="9.6308483"><ele>36.0</ele><time>2026-04-19T08:10:02.63Z</time></trkpt><trkpt lat="40.844585" lon="9.6306867"><ele>36.25</ele><time>2026-04-19T08:10:03.638Z</time></trkpt><trkpt lat="40.8445767" lon="9.630525"><ele>36.5</ele><time>2026-04-19T08:10:04.627Z</time></trkpt><trkpt lat="40.84457" lon="9.630365"><ele>36.75</ele><time>2026-04-19T08:10:05.633Z</time></trkpt><trkpt lat="40.84456" lon="9.6302033"><ele>37.0</ele><time>2026-04-19T08:10:06.624Z</time></trkpt><trkpt lat="40.8445483" lon="9.6300417"><ele>37.333333333333336</ele><time>2026-04-19T08:10:07.631Z</time></trkpt><trkpt lat="40.8445383" lon="9.6298917"><ele>37.66666666666667</ele><time>2026-04-19T08:10:08.619Z</time></trkpt><trkpt lat="40.8445333" lon="9.629755"><ele>38.0</ele><time>2026-04-19T08:10:09.626Z</time></trkpt><trkpt lat="40.8445317" lon="9.6296367"><ele>38.333333333333336</ele><time>2026-04-19T08:10:10.634Z</time></trkpt><trkpt lat="40.844535" lon="9.6295433"><ele>38.666666666666664</ele><time>2026-04-19T08:10:11.623Z</time></trkpt><trkpt lat="40.8445483" lon="9.62946"><ele>39.0</ele><time>2026-04-19T08:10:12.63Z</time></trkpt><trkpt lat="40.844605" lon="9.6293133"><ele>39.5</ele><time>2026-04-19T08:10:14.643Z</time></trkpt><trkpt lat="40.8446467" lon="9.6292433"><ele>40.0</ele><time>2026-04-19T08:10:15.632Z</time></trkpt><trkpt lat="40.844695" lon="9.629165"><ele>40.5</ele><time>2026-04-19T08:10:16.64Z</time></trkpt><trkpt lat="40.8447517" lon="9.6290833"><ele>41.0</ele><time>2026-04-19T08:10:17.629Z</time></trkpt><trkpt lat="40.8448067" lon="9.629"><ele>41.5</ele><time>2026-04-19T08:10:18.636Z</time></trkpt><trkpt lat="40.84486" lon="9.6289267"><ele>42.0</ele><time>2026-04-19T08:10:19.626Z</time></trkpt><trkpt lat="40.8449067" lon="9.6288583"><ele>42.0</ele><time>2026-04-19T08:10:20.633Z</time></trkpt><trkpt lat="40.8449467" lon="9.6287917"><ele>42.0</ele><time>2026-04-19T08:10:21.639Z</time></trkpt><trkpt lat="40.84499" lon="9.62873"><ele>42.0</ele><time>2026-04-19T08:10:22.629Z</time></trkpt><trkpt lat="40.8450367" lon="9.6286733"><ele>42.0</ele><time>2026-04-19T08:10:23.636Z</time></trkpt><trkpt lat="40.8450883" lon="9.628615"><ele>42.0</ele><time>2026-04-19T08:10:24.626Z</time></trkpt><trkpt lat="40.845135" lon="9.62855"><ele>42.0</ele><time>2026-04-19T08:10:25.632Z</time></trkpt><trkpt lat="40.845205" lon="9.6284433"><ele>42.0</ele><time>2026-04-19T08:10:27.628Z</time></trkpt><trkpt lat="40.84525" lon="9.628365"><ele>41.0</ele><time>2026-04-19T08:10:30.631Z</time></trkpt><trkpt lat="40.8452617" lon="9.62827"><ele>40.0</ele><time>2026-04-19T08:10:34.624Z</time></trkpt><trkpt lat="40.8452717" lon="9.62814"><ele>39.0</ele><time>2026-04-19T08:10:37.628Z</time></trkpt><trkpt lat="40.8452983" lon="9.62802"><ele>38.0</ele><time>2026-04-19T08:10:39.625Z</time></trkpt><trkpt lat="40.8452917" lon="9.6278867"><ele>37.0</ele><time>2026-04-19T08:10:41.62Z</time></trkpt><trkpt lat="40.8452467" lon="9.6277283"><ele>37.0</ele><time>2026-04-19T08:10:43.633Z</time></trkpt><trkpt lat="40.8452133" lon="9.6276533"><ele>37.0</ele><time>2026-04-19T08:10:44.624Z</time></trkpt><trkpt lat="40.8451817" lon="9.62758"><ele>37.0</ele><time>2026-04-19T08:10:45.631Z</time></trkpt><trkpt lat="40.8451517" lon="9.627505"><ele>37.0</ele><time>2026-04-19T08:10:46.621Z</time></trkpt><trkpt lat="40.845115" lon="9.62743"><ele>37.0</ele><time>2026-04-19T08:10:47.644Z</time></trkpt><trkpt lat="40.845075" lon="9.6273467"><ele>37.0</ele><time>2026-04-19T08:10:48.634Z</time></trkpt><trkpt lat="40.8450333" lon="9.627255"><ele>37.0</ele><time>2026-04-19T08:10:49.641Z</time></trkpt><trkpt lat="40.844995" lon="9.6271733"><ele>37.6</ele><time>2026-04-19T08:10:50.63Z</time></trkpt><trkpt lat="40.844935" lon="9.627055"><ele>38.2</ele><time>2026-04-19T08:10:52.627Z</time></trkpt><trkpt lat="40.8448767" lon="9.6269533"><ele>38.8</ele><time>2026-04-19T08:10:54.64Z</time></trkpt><trkpt lat="40.8448183" lon="9.626815"><ele>39.4</ele><time>2026-04-19T08:10:56.637Z</time></trkpt><trkpt lat="40.844785" lon="9.6267433"><ele>40.0</ele><time>2026-04-19T08:10:57.627Z</time></trkpt><trkpt lat="40.8447333" lon="9.6266183"><ele>40.16666666666667</ele><time>2026-04-19T08:10:59.64Z</time></trkpt><trkpt lat="40.8446983" lon="9.626515"><ele>40.333333333333336</ele><time>2026-04-19T08:11:01.636Z</time></trkpt><trkpt lat="40.8446583" lon="9.6264117"><ele>40.5</ele><time>2026-04-19T08:11:03.633Z</time></trkpt><trkpt lat="40.8446133" lon="9.6263217"><ele>40.666666666666664</ele><time>2026-04-19T08:11:05.629Z</time></trkpt><trkpt lat="40.8445567" lon="9.6262267"><ele>40.83333333333333</ele><time>2026-04-19T08:11:07.626Z</time></trkpt><trkpt lat="40.8445067" lon="9.6261367"><ele>41.0</ele><time>2026-04-19T08:11:09.639Z</time></trkpt><trkpt lat="40.844465" lon="9.6260667"><ele>41.199999999999996</ele><time>2026-04-19T08:11:11.635Z</time></trkpt><trkpt lat="40.8444167" lon="9.625975"><ele>41.4</ele><time>2026-04-19T08:11:13.632Z</time></trkpt><trkpt lat="40.844375" lon="9.6258617"><ele>41.6</ele><time>2026-04-19T08:11:15.628Z</time></trkpt><trkpt lat="40.8443283" lon="9.6257533"><ele>41.8</ele><time>2026-04-19T08:11:17.625Z</time></trkpt><trkpt lat="40.84428" lon="9.6256567"><ele>42.0</ele><time>2026-04-19T08:11:19.621Z</time></trkpt><trkpt lat="40.8442333" lon="9.6255483"><ele>43.400000000000006</ele><time>2026-04-19T08:11:21.635Z</time></trkpt><trkpt lat="40.844205" lon="9.6254317"><ele>44.800000000000004</ele><time>2026-04-19T08:11:23.631Z</time></trkpt><trkpt lat="40.8441683" lon="9.62526"><ele>46.2</ele><time>2026-04-19T08:11:25.645Z</time></trkpt><trkpt lat="40.8441517" lon="9.6251617"><ele>47.6</ele><time>2026-04-19T08:11:26.634Z</time></trkpt><trkpt lat="40.844135" lon="9.6250567"><ele>49.0</ele><time>2026-04-19T08:11:27.641Z</time></trkpt><trkpt lat="40.8441167" lon="9.6249383"><ele>49.0</ele><time>2026-04-19T08:11:28.63Z</time></trkpt><trkpt lat="40.8441" lon="9.6248167"><ele>49.0</ele><time>2026-04-19T08:11:29.637Z</time></trkpt><trkpt lat="40.8440817" lon="9.62469"><ele>49.0</ele><time>2026-04-19T08:11:30.627Z</time></trkpt><trkpt lat="40.8440633" lon="9.6245583"><ele>49.0</ele><time>2026-04-19T08:11:31.633Z</time></trkpt><trkpt lat="40.8440417" lon="9.6244217"><ele>49.0</ele><time>2026-04-19T08:11:32.641Z</time></trkpt><trkpt lat="40.8440183" lon="9.6242783"><ele>48.25</ele><time>2026-04-19T08:11:33.63Z</time></trkpt><trkpt lat="40.8439933" lon="9.6241333"><ele>47.5</ele><time>2026-04-19T08:11:34.637Z</time></trkpt><trkpt lat="40.8439667" lon="9.623985"><ele>46.75</ele><time>2026-04-19T08:11:35.626Z</time></trkpt><trkpt lat="40.8439417" lon="9.6238367"><ele>46.0</ele><time>2026-04-19T08:11:36.633Z</time></trkpt><trkpt lat="40.843915" lon="9.6236817"><ele>45.5</ele><time>2026-04-19T08:11:37.64Z</time></trkpt><trkpt lat="40.8438883" lon="9.6235233"><ele>45.0</ele><time>2026-04-19T08:11:38.63Z</time></trkpt><trkpt lat="40.8438621" lon="9.6233604"><ele>44.5</ele><time>2026-04-19T08:11:39.637Z</time></trkpt><trkpt lat="40.8438358" lon="9.6231949"><ele>44.0</ele><time>2026-04-19T08:11:40.626Z</time></trkpt><trkpt lat="40.8438083" lon="9.6230233"><ele>44.0</ele><time>2026-04-19T08:11:41.633Z</time></trkpt><trkpt lat="40.8437796" lon="9.6228508"><ele>44.0</ele><time>2026-04-19T08:11:42.64Z</time></trkpt><trkpt lat="40.8437477" lon="9.6226806"><ele>44.0</ele><time>2026-04-19T08:11:43.63Z</time></trkpt><trkpt lat="40.8437129" lon="9.6225129"><ele>44.0</ele><time>2026-04-19T08:11:44.635Z</time></trkpt><trkpt lat="40.8436705" lon="9.6223488"><ele>44.0</ele><time>2026-04-19T08:11:45.626Z</time></trkpt><trkpt lat="40.8436196" lon="9.6221819"><ele>44.0</ele><time>2026-04-19T08:11:46.632Z</time></trkpt><trkpt lat="40.8435563" lon="9.6220162"><ele>44.0</ele><time>2026-04-19T08:11:47.639Z</time></trkpt><trkpt lat="40.8434771" lon="9.6218527"><ele>44.0</ele><time>2026-04-19T08:11:48.629Z</time></trkpt><trkpt lat="40.8433816" lon="9.6216949"><ele>48.33333333333333</ele><time>2026-04-19T08:11:49.636Z</time></trkpt><trkpt lat="40.8432746" lon="9.6215468"><ele>52.666666666666664</ele><time>2026-04-19T08:11:50.625Z</time></trkpt><trkpt lat="40.8431577" lon="9.6214069"><ele>57.0</ele><time>2026-04-19T08:11:51.632Z</time></trkpt><trkpt lat="40.8430316" lon="9.6212744"><ele>56.66666666666667</ele><time>2026-04-19T08:11:52.622Z</time></trkpt><trkpt lat="40.8428984" lon="9.621147"><ele>56.333333333333336</ele><time>2026-04-19T08:11:53.628Z</time></trkpt><trkpt lat="40.8427633" lon="9.6210296"><ele>56.0</ele><time>2026-04-19T08:11:54.636Z</time></trkpt><trkpt lat="40.8426255" lon="9.6209182"><ele>56.0</ele><time>2026-04-19T08:11:55.625Z</time></trkpt><trkpt lat="40.8424831" lon="9.6208057"><ele>56.0</ele><time>2026-04-19T08:11:56.632Z</time></trkpt><trkpt lat="40.8423428" lon="9.6206932"><ele>56.0</ele><time>2026-04-19T08:11:57.622Z</time></trkpt><trkpt lat="40.8422004" lon="9.6205744"><ele>56.0</ele><time>2026-04-19T08:11:58.629Z</time></trkpt><trkpt lat="40.8420602" lon="9.6204443"><ele>56.0</ele><time>2026-04-19T08:11:59.635Z</time></trkpt><trkpt lat="40.8419283" lon="9.6203054"><ele>56.0</ele><time>2026-04-19T08:12:00.625Z</time></trkpt><trkpt lat="40.8417985" lon="9.6201514"><ele>56.0</ele><time>2026-04-19T08:12:01.631Z</time></trkpt><trkpt lat="40.8416753" lon="9.6199871"><ele>56.0</ele><time>2026-04-19T08:12:02.622Z</time></trkpt><trkpt lat="40.8415593" lon="9.6198058"><ele>56.0</ele><time>2026-04-19T08:12:03.628Z</time></trkpt><trkpt lat="40.841453" lon="9.6196133"><ele>54.66666666666667</ele><time>2026-04-19T08:12:04.635Z</time></trkpt><trkpt lat="40.8413521" lon="9.6194152"><ele>53.33333333333333</ele><time>2026-04-19T08:12:05.641Z</time></trkpt><trkpt lat="40.8412585" lon="9.6192139"><ele>52.0</ele><time>2026-04-19T08:12:06.631Z</time></trkpt><trkpt lat="40.8411698" lon="9.6190065"><ele>52.0</ele><time>2026-04-19T08:12:07.637Z</time></trkpt><trkpt lat="40.8410835" lon="9.6188012"><ele>52.0</ele><time>2026-04-19T08:12:08.628Z</time></trkpt><trkpt lat="40.8409955" lon="9.6185947"><ele>52.0</ele><time>2026-04-19T08:12:09.634Z</time></trkpt><trkpt lat="40.8409095" lon="9.6183894"><ele>53.33333333333333</ele><time>2026-04-19T08:12:10.641Z</time></trkpt><trkpt lat="40.8408243" lon="9.6181886"><ele>54.66666666666667</ele><time>2026-04-19T08:12:11.631Z</time></trkpt><trkpt lat="40.8407421" lon="9.6179904"><ele>56.0</ele><time>2026-04-19T08:12:12.638Z</time></trkpt><trkpt lat="40.8406591" lon="9.617795"><ele>56.0</ele><time>2026-04-19T08:12:13.626Z</time></trkpt><trkpt lat="40.8405754" lon="9.6175979"><ele>56.0</ele><time>2026-04-19T08:12:14.634Z</time></trkpt><trkpt lat="40.840492" lon="9.6174012"><ele>56.0</ele><time>2026-04-19T08:12:15.64Z</time></trkpt><trkpt lat="40.8404105" lon="9.6172079"><ele>56.0</ele><time>2026-04-19T08:12:16.63Z</time></trkpt><trkpt lat="40.8403327" lon="9.6170124"><ele>56.0</ele><time>2026-04-19T08:12:17.637Z</time></trkpt><trkpt lat="40.8402582" lon="9.6168184"><ele>56.0</ele><time>2026-04-19T08:12:18.627Z</time></trkpt><trkpt lat="40.8401831" lon="9.6166253"><ele>57.333333333333336</ele><time>2026-04-19T08:12:19.634Z</time></trkpt><trkpt lat="40.8401092" lon="9.6164366"><ele>58.66666666666667</ele><time>2026-04-19T08:12:20.639Z</time></trkpt><trkpt lat="40.8400331" lon="9.6162483"><ele>60.0</ele><time>2026-04-19T08:12:21.63Z</time></trkpt><trkpt lat="40.8399556" lon="9.6160579"><ele>60.0</ele><time>2026-04-19T08:12:22.636Z</time></trkpt><trkpt lat="40.8398779" lon="9.6158702"><ele>60.0</ele><time>2026-04-19T08:12:23.626Z</time></trkpt><trkpt lat="40.8398008" lon="9.6156836"><ele>60.0</ele><time>2026-04-19T08:12:24.633Z</time></trkpt><trkpt lat="40.8397275" lon="9.6154979"><ele>60.0</ele><time>2026-04-19T08:12:25.622Z</time></trkpt><trkpt lat="40.8396559" lon="9.6153118"><ele>60.0</ele><time>2026-04-19T08:12:26.63Z</time></trkpt><trkpt lat="40.8395867" lon="9.6151267"><ele>60.0</ele><time>2026-04-19T08:12:27.636Z</time></trkpt><trkpt lat="40.8395188" lon="9.6149458"><ele>60.0</ele><time>2026-04-19T08:12:28.625Z</time></trkpt><trkpt lat="40.8394505" lon="9.6147651"><ele>60.0</ele><time>2026-04-19T08:12:29.633Z</time></trkpt><trkpt lat="40.8393827" lon="9.614585"><ele>60.0</ele><time>2026-04-19T08:12:30.622Z</time></trkpt><trkpt lat="40.8393171" lon="9.614404"><ele>62.25</ele><time>2026-04-19T08:12:31.629Z</time></trkpt><trkpt lat="40.8392513" lon="9.6142295"><ele>64.5</ele><time>2026-04-19T08:12:32.635Z</time></trkpt><trkpt lat="40.8391861" lon="9.6140659"><ele>66.75</ele><time>2026-04-19T08:12:33.626Z</time></trkpt><trkpt lat="40.8391277" lon="9.6139171"><ele>69.0</ele><time>2026-04-19T08:12:34.632Z</time></trkpt><trkpt lat="40.8390749" lon="9.613787"><ele>69.0</ele><time>2026-04-19T08:12:35.622Z</time></trkpt><trkpt lat="40.8390279" lon="9.6136714"><ele>69.0</ele><time>2026-04-19T08:12:36.628Z</time></trkpt><trkpt lat="40.8389874" lon="9.6135716"><ele>69.0</ele><time>2026-04-19T08:12:37.636Z</time></trkpt><trkpt lat="40.8389485" lon="9.613481"><ele>69.0</ele><time>2026-04-19T08:12:38.626Z</time></trkpt><trkpt lat="40.8389124" lon="9.6133956"><ele>69.0</ele><time>2026-04-19T08:12:39.632Z</time></trkpt><trkpt lat="40.8388782" lon="9.6133183"><ele>69.0</ele><time>2026-04-19T08:12:40.622Z</time></trkpt><trkpt lat="40.8388444" lon="9.6132409"><ele>69.0</ele><time>2026-04-19T08:12:41.629Z</time></trkpt><trkpt lat="40.8388123" lon="9.6131691"><ele>69.0</ele><time>2026-04-19T08:12:42.634Z</time></trkpt><trkpt lat="40.838759" lon="9.6130426"><ele>69.0</ele><time>2026-04-19T08:12:44.632Z</time></trkpt><trkpt lat="40.8387277" lon="9.6129342"><ele>69.0</ele><time>2026-04-19T08:12:46.628Z</time></trkpt><trkpt lat="40.8387001" lon="9.6128517"><ele>69.0</ele><time>2026-04-19T08:12:48.642Z</time></trkpt><trkpt lat="40.838656" lon="9.6127577"><ele>69.0</ele><time>2026-04-19T08:12:50.638Z</time></trkpt><trkpt lat="40.8385952" lon="9.6126214"><ele>69.0</ele><time>2026-04-19T08:12:52.634Z</time></trkpt><trkpt lat="40.8385564" lon="9.6125349"><ele>69.0</ele><time>2026-04-19T08:12:53.641Z</time></trkpt><trkpt lat="40.838514" lon="9.612437"><ele>69.0</ele><time>2026-04-19T08:12:54.63Z</time></trkpt><trkpt lat="40.8384671" lon="9.6123302"><ele>69.0</ele><time>2026-04-19T08:12:55.638Z</time></trkpt><trkpt lat="40.8384152" lon="9.6122172"><ele>69.0</ele><time>2026-04-19T08:12:56.627Z</time></trkpt><trkpt lat="40.8383595" lon="9.6120959"><ele>70.0</ele><time>2026-04-19T08:12:57.633Z</time></trkpt><trkpt lat="40.8383026" lon="9.6119675"><ele>71.0</ele><time>2026-04-19T08:12:58.624Z</time></trkpt><trkpt lat="40.8382419" lon="9.6118333"><ele>72.0</ele><time>2026-04-19T08:12:59.631Z</time></trkpt><trkpt lat="40.8381805" lon="9.6116952"><ele>73.0</ele><time>2026-04-19T08:13:00.637Z</time></trkpt><trkpt lat="40.8381163" lon="9.6115526"><ele>73.0</ele><time>2026-04-19T08:13:01.627Z</time></trkpt><trkpt lat="40.8380504" lon="9.6114053"><ele>73.0</ele><time>2026-04-19T08:13:02.634Z</time></trkpt><trkpt lat="40.8379839" lon="9.6112572"><ele>73.0</ele><time>2026-04-19T08:13:03.624Z</time></trkpt><trkpt lat="40.8379166" lon="9.6111052"><ele>73.0</ele><time>2026-04-19T08:13:04.63Z</time></trkpt><trkpt lat="40.8378515" lon="9.6109531"><ele>74.75</ele><time>2026-04-19T08:13:05.636Z</time></trkpt><trkpt lat="40.8377867" lon="9.6108013"><ele>76.5</ele><time>2026-04-19T08:13:06.626Z</time></trkpt><trkpt lat="40.8377224" lon="9.6106458"><ele>78.25</ele><time>2026-04-19T08:13:07.632Z</time></trkpt><trkpt lat="40.8376584" lon="9.6104899"><ele>80.0</ele><time>2026-04-19T08:13:08.622Z</time></trkpt><trkpt lat="40.8375923" lon="9.6103318"><ele>80.75</ele><time>2026-04-19T08:13:09.629Z</time></trkpt><trkpt lat="40.8375249" lon="9.6101733"><ele>81.5</ele><time>2026-04-19T08:13:10.635Z</time></trkpt><trkpt lat="40.837458" lon="9.6100149"><ele>82.25</ele><time>2026-04-19T08:13:11.626Z</time></trkpt><trkpt lat="40.8373886" lon="9.6098545"><ele>83.0</ele><time>2026-04-19T08:13:12.632Z</time></trkpt><trkpt lat="40.8373206" lon="9.6096942"><ele>83.0</ele><time>2026-04-19T08:13:13.622Z</time></trkpt><trkpt lat="40.8372527" lon="9.6095321"><ele>83.0</ele><time>2026-04-19T08:13:14.629Z</time></trkpt><trkpt lat="40.8371855" lon="9.6093692"><ele>83.0</ele><time>2026-04-19T08:13:15.636Z</time></trkpt><trkpt lat="40.8371219" lon="9.6092028"><ele>83.0</ele><time>2026-04-19T08:13:16.642Z</time></trkpt><trkpt lat="40.8370608" lon="9.6090374"><ele>86.0</ele><time>2026-04-19T08:13:17.632Z</time></trkpt><trkpt lat="40.8370028" lon="9.6088683"><ele>89.0</ele><time>2026-04-19T08:13:18.638Z</time></trkpt><trkpt lat="40.8369516" lon="9.608697"><ele>92.0</ele><time>2026-04-19T08:13:19.629Z</time></trkpt><trkpt lat="40.8369046" lon="9.6085211"><ele>95.0</ele><time>2026-04-19T08:13:20.636Z</time></trkpt><trkpt lat="40.8368556" lon="9.6083437"><ele>94.75</ele><time>2026-04-19T08:13:21.642Z</time></trkpt><trkpt lat="40.836805" lon="9.6081684"><ele>94.5</ele><time>2026-04-19T08:13:22.632Z</time></trkpt><trkpt lat="40.8367533" lon="9.60799"><ele>94.25</ele><time>2026-04-19T08:13:23.639Z</time></trkpt><trkpt lat="40.8367015" lon="9.6078113"><ele>94.0</ele><time>2026-04-19T08:13:24.629Z</time></trkpt><trkpt lat="40.8366467" lon="9.607629"><ele>94.0</ele><time>2026-04-19T08:13:25.635Z</time></trkpt><trkpt lat="40.836589" lon="9.607448"><ele>94.0</ele><time>2026-04-19T08:13:26.642Z</time></trkpt><trkpt lat="40.8365257" lon="9.6072714"><ele>94.0</ele><time>2026-04-19T08:13:27.632Z</time></trkpt><trkpt lat="40.8364559" lon="9.6070954"><ele>94.0</ele><time>2026-04-19T08:13:28.637Z</time></trkpt><trkpt lat="40.8363813" lon="9.6069233"><ele>96.66666666666666</ele><time>2026-04-19T08:13:29.628Z</time></trkpt><trkpt lat="40.8363025" lon="9.6067533"><ele>99.33333333333333</ele><time>2026-04-19T08:13:30.635Z</time></trkpt><trkpt lat="40.8362189" lon="9.6065898"><ele>102.0</ele><time>2026-04-19T08:13:31.625Z</time></trkpt><trkpt lat="40.8361301" lon="9.6064291"><ele>102.0</ele><time>2026-04-19T08:13:32.631Z</time></trkpt><trkpt lat="40.8360408" lon="9.6062762"><ele>102.0</ele><time>2026-04-19T08:13:33.638Z</time></trkpt><trkpt lat="40.8359513" lon="9.6061317"><ele>102.0</ele><time>2026-04-19T08:13:34.628Z</time></trkpt><trkpt lat="40.8358615" lon="9.6059924"><ele>102.0</ele><time>2026-04-19T08:13:35.634Z</time></trkpt><trkpt lat="40.8357719" lon="9.6058562"><ele>102.5</ele><time>2026-04-19T08:13:36.623Z</time></trkpt><trkpt lat="40.8356801" lon="9.6057221"><ele>103.0</ele><time>2026-04-19T08:13:37.63Z</time></trkpt><trkpt lat="40.8355888" lon="9.6055898"><ele>103.5</ele><time>2026-04-19T08:13:38.638Z</time></trkpt><trkpt lat="40.835498" lon="9.605458"><ele>104.0</ele><time>2026-04-19T08:13:39.627Z</time></trkpt><trkpt lat="40.8354076" lon="9.6053248"><ele>104.0</ele><time>2026-04-19T08:13:40.633Z</time></trkpt><trkpt lat="40.8353192" lon="9.6051941"><ele>104.0</ele><time>2026-04-19T08:13:41.624Z</time></trkpt><trkpt lat="40.835229" lon="9.6050612"><ele>104.0</ele><time>2026-04-19T08:13:42.631Z</time></trkpt><trkpt lat="40.8351389" lon="9.604928"><ele>104.0</ele><time>2026-04-19T08:13:43.637Z</time></trkpt><trkpt lat="40.8350497" lon="9.6047951"><ele>103.25</ele><time>2026-04-19T08:13:44.627Z</time></trkpt><trkpt lat="40.8349591" lon="9.6046618"><ele>102.5</ele><time>2026-04-19T08:13:45.633Z</time></trkpt><trkpt lat="40.8348681" lon="9.6045306"><ele>101.75</ele><time>2026-04-19T08:13:46.624Z</time></trkpt><trkpt lat="40.8347758" lon="9.6043986"><ele>101.0</ele><time>2026-04-19T08:13:47.629Z</time></trkpt><trkpt lat="40.8346825" lon="9.6042673"><ele>101.0</ele><time>2026-04-19T08:13:48.636Z</time></trkpt><trkpt lat="40.8345874" lon="9.6041367"><ele>101.0</ele><time>2026-04-19T08:13:49.626Z</time></trkpt><trkpt lat="40.8344887" lon="9.6040093"><ele>101.0</ele><time>2026-04-19T08:13:50.632Z</time></trkpt><trkpt lat="40.8343869" lon="9.6038876"><ele>101.0</ele><time>2026-04-19T08:13:51.623Z</time></trkpt><trkpt lat="40.8342835" lon="9.6037667"><ele>102.25</ele><time>2026-04-19T08:13:52.63Z</time></trkpt><trkpt lat="40.8341792" lon="9.6036434"><ele>103.5</ele><time>2026-04-19T08:13:53.619Z</time></trkpt><trkpt lat="40.8340718" lon="9.6035184"><ele>104.75</ele><time>2026-04-19T08:13:54.643Z</time></trkpt><trkpt lat="40.8339632" lon="9.6034026"><ele>106.0</ele><time>2026-04-19T08:13:55.633Z</time></trkpt><trkpt lat="40.8338488" lon="9.6032904"><ele>106.0</ele><time>2026-04-19T08:13:56.64Z</time></trkpt><trkpt lat="40.8337341" lon="9.603178"><ele>106.0</ele><time>2026-04-19T08:13:57.629Z</time></trkpt><trkpt lat="40.8336166" lon="9.6030634"><ele>106.0</ele><time>2026-04-19T08:13:58.636Z</time></trkpt><trkpt lat="40.8334995" lon="9.6029424"><ele>106.0</ele><time>2026-04-19T08:13:59.642Z</time></trkpt><trkpt lat="40.8333798" lon="9.6028207"><ele>106.0</ele><time>2026-04-19T08:14:00.632Z</time></trkpt><trkpt lat="40.8332591" lon="9.6026914"><ele>106.0</ele><time>2026-04-19T08:14:01.638Z</time></trkpt><trkpt lat="40.8331395" lon="9.6025559"><ele>106.0</ele><time>2026-04-19T08:14:02.629Z</time></trkpt><trkpt lat="40.8330207" lon="9.602412"><ele>106.0</ele><time>2026-04-19T08:14:03.636Z</time></trkpt><trkpt lat="40.8329083" lon="9.6022595"><ele>106.0</ele><time>2026-04-19T08:14:04.642Z</time></trkpt><trkpt lat="40.8328042" lon="9.6021033"><ele>106.0</ele><time>2026-04-19T08:14:05.631Z</time></trkpt><trkpt lat="40.832705" lon="9.6019386"><ele>104.33333333333334</ele><time>2026-04-19T08:14:06.639Z</time></trkpt><trkpt lat="40.8326123" lon="9.601769"><ele>102.66666666666666</ele><time>2026-04-19T08:14:07.629Z</time></trkpt><trkpt lat="40.8325216" lon="9.6015908"><ele>101.0</ele><time>2026-04-19T08:14:08.634Z</time></trkpt><trkpt lat="40.8324331" lon="9.6014099"><ele>101.0</ele><time>2026-04-19T08:14:09.624Z</time></trkpt><trkpt lat="40.8323424" lon="9.6012241"><ele>101.0</ele><time>2026-04-19T08:14:10.632Z</time></trkpt><trkpt lat="40.8322523" lon="9.6010363"><ele>101.0</ele><time>2026-04-19T08:14:11.638Z</time></trkpt><trkpt lat="40.8321633" lon="9.600852"><ele>100.66666666666666</ele><time>2026-04-19T08:14:12.628Z</time></trkpt><trkpt lat="40.8320728" lon="9.6006701"><ele>100.33333333333334</ele><time>2026-04-19T08:14:13.635Z</time></trkpt><trkpt lat="40.8319866" lon="9.6004947"><ele>100.0</ele><time>2026-04-19T08:14:14.625Z</time></trkpt><trkpt lat="40.8319004" lon="9.6003237"><ele>100.0</ele><time>2026-04-19T08:14:15.63Z</time></trkpt><trkpt lat="40.8318177" lon="9.6001553"><ele>100.0</ele><time>2026-04-19T08:14:16.638Z</time></trkpt><trkpt lat="40.8317394" lon="9.5999913"><ele>100.0</ele><time>2026-04-19T08:14:17.627Z</time></trkpt><trkpt lat="40.831663" lon="9.5998292"><ele>100.0</ele><time>2026-04-19T08:14:18.634Z</time></trkpt><trkpt lat="40.8315886" lon="9.5996752"><ele>98.75</ele><time>2026-04-19T08:14:19.623Z</time></trkpt><trkpt lat="40.8315103" lon="9.5995232"><ele>97.5</ele><time>2026-04-19T08:14:20.631Z</time></trkpt><trkpt lat="40.8314327" lon="9.5993689"><ele>96.25</ele><time>2026-04-19T08:14:21.637Z</time></trkpt><trkpt lat="40.8313566" lon="9.5992119"><ele>95.0</ele><time>2026-04-19T08:14:22.627Z</time></trkpt><trkpt lat="40.8312821" lon="9.5990504"><ele>95.0</ele><time>2026-04-19T08:14:23.633Z</time></trkpt><trkpt lat="40.8312088" lon="9.5988883"><ele>95.0</ele><time>2026-04-19T08:14:24.624Z</time></trkpt><trkpt lat="40.8311371" lon="9.5987216"><ele>95.0</ele><time>2026-04-19T08:14:25.63Z</time></trkpt><trkpt lat="40.8310639" lon="9.5985529"><ele>95.0</ele><time>2026-04-19T08:14:26.637Z</time></trkpt><trkpt lat="40.8309905" lon="9.5983861"><ele>96.25</ele><time>2026-04-19T08:14:27.626Z</time></trkpt><trkpt lat="40.8309151" lon="9.5982183"><ele>97.5</ele><time>2026-04-19T08:14:28.634Z</time></trkpt><trkpt lat="40.8308387" lon="9.5980533"><ele>98.75</ele><time>2026-04-19T08:14:29.623Z</time></trkpt><trkpt lat="40.8307585" lon="9.5978892"><ele>100.0</ele><time>2026-04-19T08:14:30.63Z</time></trkpt><trkpt lat="40.8306718" lon="9.5977344"><ele>101.25</ele><time>2026-04-19T08:14:31.62Z</time></trkpt><trkpt lat="40.8305747" lon="9.5975852"><ele>102.5</ele><time>2026-04-19T08:14:32.643Z</time></trkpt><trkpt lat="40.830474" lon="9.5974481"><ele>103.75</ele><time>2026-04-19T08:14:33.632Z</time></trkpt><trkpt lat="40.8303661" lon="9.5973171"><ele>105.0</ele><time>2026-04-19T08:14:34.639Z</time></trkpt><trkpt lat="40.8302537" lon="9.5971957"><ele>104.5</ele><time>2026-04-19T08:14:35.63Z</time></trkpt><trkpt lat="40.8301344" lon="9.597085"><ele>104.0</ele><time>2026-04-19T08:14:36.635Z</time></trkpt><trkpt lat="40.8300158" lon="9.5969805"><ele>103.5</ele><time>2026-04-19T08:14:37.643Z</time></trkpt><trkpt lat="40.8299017" lon="9.5968932"><ele>103.0</ele><time>2026-04-19T08:14:38.633Z</time></trkpt><trkpt lat="40.8297877" lon="9.5968191"><ele>104.25</ele><time>2026-04-19T08:14:39.639Z</time></trkpt><trkpt lat="40.8296714" lon="9.596753"><ele>105.5</ele><time>2026-04-19T08:14:40.629Z</time></trkpt><trkpt lat="40.8295486" lon="9.5966911"><ele>106.75</ele><time>2026-04-19T08:14:41.635Z</time></trkpt><trkpt lat="40.8294218" lon="9.5966327"><ele>108.0</ele><time>2026-04-19T08:14:42.626Z</time></trkpt><trkpt lat="40.8292906" lon="9.596574"><ele>108.0</ele><time>2026-04-19T08:14:43.633Z</time></trkpt><trkpt lat="40.8291578" lon="9.5965123"><ele>108.0</ele><time>2026-04-19T08:14:44.638Z</time></trkpt><trkpt lat="40.8290255" lon="9.5964533"><ele>108.0</ele><time>2026-04-19T08:14:45.629Z</time></trkpt><trkpt lat="40.8288958" lon="9.5963937"><ele>108.0</ele><time>2026-04-19T08:14:46.636Z</time></trkpt><trkpt lat="40.8287678" lon="9.5963338"><ele>108.0</ele><time>2026-04-19T08:14:47.626Z</time></trkpt><trkpt lat="40.8286377" lon="9.5962749"><ele>108.0</ele><time>2026-04-19T08:14:48.632Z</time></trkpt><trkpt lat="40.8285038" lon="9.596218"><ele>108.0</ele><time>2026-04-19T08:14:49.638Z</time></trkpt><trkpt lat="40.8283683" lon="9.5961597"><ele>108.0</ele><time>2026-04-19T08:14:50.629Z</time></trkpt><trkpt lat="40.8282306" lon="9.5960976"><ele>109.0</ele><time>2026-04-19T08:14:51.635Z</time></trkpt><trkpt lat="40.8280998" lon="9.5960324"><ele>110.0</ele><time>2026-04-19T08:14:52.625Z</time></trkpt><trkpt lat="40.8279754" lon="9.5959665"><ele>111.0</ele><time>2026-04-19T08:14:53.632Z</time></trkpt><trkpt lat="40.8278632" lon="9.5958942"><ele>112.0</ele><time>2026-04-19T08:14:54.638Z</time></trkpt><trkpt lat="40.8277609" lon="9.5958169"><ele>112.0</ele><time>2026-04-19T08:14:55.628Z</time></trkpt><trkpt lat="40.827663" lon="9.5957359"><ele>112.0</ele><time>2026-04-19T08:14:56.634Z</time></trkpt><trkpt lat="40.8275687" lon="9.5956471"><ele>112.0</ele><time>2026-04-19T08:14:57.624Z</time></trkpt><trkpt lat="40.8274793" lon="9.5955422"><ele>112.0</ele><time>2026-04-19T08:14:58.631Z</time></trkpt><trkpt lat="40.827389" lon="9.5954314"><ele>113.0</ele><time>2026-04-19T08:14:59.638Z</time></trkpt><trkpt lat="40.8272943" lon="9.5953248"><ele>114.0</ele><time>2026-04-19T08:15:00.627Z</time></trkpt><trkpt lat="40.8271917" lon="9.59521"><ele>115.0</ele><time>2026-04-19T08:15:01.635Z</time></trkpt><trkpt lat="40.82708" lon="9.595095"><ele>116.0</ele><time>2026-04-19T08:15:02.623Z</time></trkpt><trkpt lat="40.8269667" lon="9.5949833"><ele>116.0</ele><time>2026-04-19T08:15:03.63Z</time></trkpt><trkpt lat="40.8268517" lon="9.5948733"><ele>116.0</ele><time>2026-04-19T08:15:04.621Z</time></trkpt><trkpt lat="40.82674" lon="9.59477"><ele>116.0</ele><time>2026-04-19T08:15:05.643Z</time></trkpt><trkpt lat="40.8266367" lon="9.594675"><ele>116.0</ele><time>2026-04-19T08:15:06.634Z</time></trkpt><trkpt lat="40.826535" lon="9.5945933"><ele>116.19999999999999</ele><time>2026-04-19T08:15:07.641Z</time></trkpt><trkpt lat="40.8264417" lon="9.5945183"><ele>116.39999999999999</ele><time>2026-04-19T08:15:08.631Z</time></trkpt><trkpt lat="40.8263567" lon="9.594445"><ele>116.6</ele><time>2026-04-19T08:15:09.62Z</time></trkpt><trkpt lat="40.82628" lon="9.59438"><ele>116.8</ele><time>2026-04-19T08:15:10.643Z</time></trkpt><trkpt lat="40.8262133" lon="9.5943283"><ele>117.0</ele><time>2026-04-19T08:15:11.634Z</time></trkpt><trkpt lat="40.82612" lon="9.5942433"><ele>117.0</ele><time>2026-04-19T08:15:13.629Z</time></trkpt><trkpt lat="40.8260883" lon="9.5941583"><ele>116.99999999999999</ele><time>2026-04-19T08:15:15.627Z</time></trkpt><trkpt lat="40.8260967" lon="9.594055"><ele>116.99999999999999</ele><time>2026-04-19T08:15:17.64Z</time></trkpt><trkpt lat="40.8261" lon="9.59389"><ele>117.0</ele><time>2026-04-19T08:15:19.636Z</time></trkpt><trkpt lat="40.8261" lon="9.5937717"><ele>117.0</ele><time>2026-04-19T08:15:20.626Z</time></trkpt><trkpt lat="40.8261033" lon="9.593615"><ele>117.5</ele><time>2026-04-19T08:15:21.632Z</time></trkpt><trkpt lat="40.8261083" lon="9.5934617"><ele>118.0</ele><time>2026-04-19T08:15:22.639Z</time></trkpt><trkpt lat="40.8261167" lon="9.5932983"><ele>118.5</ele><time>2026-04-19T08:15:23.629Z</time></trkpt><trkpt lat="40.826125" lon="9.5931317"><ele>119.0</ele><time>2026-04-19T08:15:24.636Z</time></trkpt><trkpt lat="40.826135" lon="9.592975"><ele>119.80000000000001</ele><time>2026-04-19T08:15:25.626Z</time></trkpt><trkpt lat="40.826145" lon="9.5928233"><ele>120.60000000000001</ele><time>2026-04-19T08:15:26.632Z</time></trkpt><trkpt lat="40.82615" lon="9.59268"><ele>121.4</ele><time>2026-04-19T08:15:27.638Z</time></trkpt><trkpt lat="40.8261483" lon="9.59254"><ele>122.2</ele><time>2026-04-19T08:15:28.628Z</time></trkpt><trkpt lat="40.826135" lon="9.59239"><ele>123.0</ele><time>2026-04-19T08:15:29.636Z</time></trkpt><trkpt lat="40.8261033" lon="9.5922333"><ele>123.0</ele><time>2026-04-19T08:15:30.626Z</time></trkpt><trkpt lat="40.82607" lon="9.5920867"><ele>123.00000000000001</ele><time>2026-04-19T08:15:31.632Z</time></trkpt><trkpt lat="40.8260383" lon="9.5919517"><ele>123.00000000000001</ele><time>2026-04-19T08:15:32.639Z</time></trkpt><trkpt lat="40.8260083" lon="9.5918267"><ele>123.0</ele><time>2026-04-19T08:15:33.628Z</time></trkpt><trkpt lat="40.8259717" lon="9.5917133"><ele>123.0</ele><time>2026-04-19T08:15:34.635Z</time></trkpt><trkpt lat="40.8259333" lon="9.59162"><ele>122.4</ele><time>2026-04-19T08:15:35.625Z</time></trkpt><trkpt lat="40.8258833" lon="9.5915267"><ele>121.80000000000001</ele><time>2026-04-19T08:15:36.632Z</time></trkpt><trkpt lat="40.8258283" lon="9.5914167"><ele>121.2</ele><time>2026-04-19T08:15:37.622Z</time></trkpt><trkpt lat="40.825775" lon="9.5912783"><ele>120.6</ele><time>2026-04-19T08:15:38.627Z</time></trkpt><trkpt lat="40.8257233" lon="9.5911383"><ele>120.0</ele><time>2026-04-19T08:15:39.635Z</time></trkpt><trkpt lat="40.82567" lon="9.5909967"><ele>120.0</ele><time>2026-04-19T08:15:40.625Z</time></trkpt><trkpt lat="40.8256117" lon="9.59085"><ele>120.0</ele><time>2026-04-19T08:15:41.631Z</time></trkpt><trkpt lat="40.8255483" lon="9.5906933"><ele>120.0</ele><time>2026-04-19T08:15:42.621Z</time></trkpt><trkpt lat="40.8254883" lon="9.5905317"><ele>120.0</ele><time>2026-04-19T08:15:43.644Z</time></trkpt><trkpt lat="40.8254333" lon="9.5903817"><ele>121.5</ele><time>2026-04-19T08:15:44.634Z</time></trkpt><trkpt lat="40.8253833" lon="9.59023"><ele>123.0</ele><time>2026-04-19T08:15:45.64Z</time></trkpt><trkpt lat="40.8253283" lon="9.5900783"><ele>124.5</ele><time>2026-04-19T08:15:46.631Z</time></trkpt><trkpt lat="40.8252817" lon="9.5899333"><ele>126.0</ele><time>2026-04-19T08:15:47.638Z</time></trkpt><trkpt lat="40.8252317" lon="9.5898"><ele>126.0</ele><time>2026-04-19T08:15:48.626Z</time></trkpt><trkpt lat="40.825175" lon="9.5896783"><ele>126.0</ele><time>2026-04-19T08:15:49.633Z</time></trkpt><trkpt lat="40.825105" lon="9.589565"><ele>126.0</ele><time>2026-04-19T08:15:50.64Z</time></trkpt><trkpt lat="40.8250183" lon="9.5894667"><ele>126.0</ele><time>2026-04-19T08:15:51.63Z</time></trkpt><trkpt lat="40.8249267" lon="9.5893717"><ele>126.0</ele><time>2026-04-19T08:15:52.636Z</time></trkpt><trkpt lat="40.8248433" lon="9.5892783"><ele>125.0</ele><time>2026-04-19T08:15:53.627Z</time></trkpt><trkpt lat="40.8247733" lon="9.5891867"><ele>124.0</ele><time>2026-04-19T08:15:54.633Z</time></trkpt><trkpt lat="40.824725" lon="9.5891"><ele>123.0</ele><time>2026-04-19T08:15:55.64Z</time></trkpt><trkpt lat="40.82468" lon="9.589"><ele>122.0</ele><time>2026-04-19T08:15:56.63Z</time></trkpt><trkpt lat="40.8246333" lon="9.58889"><ele>121.0</ele><time>2026-04-19T08:15:57.637Z</time></trkpt><trkpt lat="40.82459" lon="9.5887733"><ele>121.19999999999999</ele><time>2026-04-19T08:15:58.627Z</time></trkpt><trkpt lat="40.8245467" lon="9.5886467"><ele>121.39999999999999</ele><time>2026-04-19T08:15:59.633Z</time></trkpt><trkpt lat="40.82451" lon="9.5885217"><ele>121.6</ele><time>2026-04-19T08:16:00.639Z</time></trkpt><trkpt lat="40.8244867" lon="9.588415"><ele>121.8</ele><time>2026-04-19T08:16:01.63Z</time></trkpt><trkpt lat="40.82447" lon="9.5883267"><ele>122.0</ele><time>2026-04-19T08:16:02.636Z</time></trkpt><trkpt lat="40.8244583" lon="9.5881983"><ele>121.99999999999999</ele><time>2026-04-19T08:16:04.632Z</time></trkpt><trkpt lat="40.82436" lon="9.588085"><ele>122.0</ele><time>2026-04-19T08:16:17.635Z</time></trkpt><trkpt lat="40.824395" lon="9.58817"><ele>122.0</ele><time>2026-04-19T08:16:21.627Z</time></trkpt><trkpt lat="40.8244217" lon="9.5882467"><ele>122.0</ele><time>2026-04-19T08:16:25.638Z</time></trkpt><trkpt lat="40.8244517" lon="9.58835"><ele>121.99999999999999</ele><time>2026-04-19T08:16:39.629Z</time></trkpt><trkpt lat="40.82446" lon="9.588435"><ele>122.0</ele><time>2026-04-19T08:16:40.637Z</time></trkpt><trkpt lat="40.8244817" lon="9.5885383"><ele>121.99999999999999</ele><time>2026-04-19T08:16:41.626Z</time></trkpt><trkpt lat="40.8245167" lon="9.5886417"><ele>122.0</ele><time>2026-04-19T08:16:42.633Z</time></trkpt><trkpt lat="40.8245567" lon="9.5887433"><ele>122.0</ele><time>2026-04-19T08:16:43.623Z</time></trkpt><trkpt lat="40.824595" lon="9.588845"><ele>122.0</ele><time>2026-04-19T08:16:44.63Z</time></trkpt><trkpt lat="40.8246367" lon="9.588945"><ele>121.99999999999999</ele><time>2026-04-19T08:16:45.636Z</time></trkpt><trkpt lat="40.824675" lon="9.5890333"><ele>122.0</ele><time>2026-04-19T08:16:46.625Z</time></trkpt><trkpt lat="40.8247217" lon="9.58911"><ele>121.83333333333333</ele><time>2026-04-19T08:16:47.633Z</time></trkpt><trkpt lat="40.8247717" lon="9.5891817"><ele>121.66666666666666</ele><time>2026-04-19T08:16:48.623Z</time></trkpt><trkpt lat="40.82483" lon="9.58925"><ele>121.5</ele><time>2026-04-19T08:16:49.628Z</time></trkpt><trkpt lat="40.8248967" lon="9.5893267"><ele>121.33333333333334</ele><time>2026-04-19T08:16:50.636Z</time></trkpt><trkpt lat="40.8249667" lon="9.5894017"><ele>121.16666666666667</ele><time>2026-04-19T08:16:51.625Z</time></trkpt><trkpt lat="40.8250383" lon="9.5894833"><ele>121.0</ele><time>2026-04-19T08:16:52.633Z</time></trkpt><trkpt lat="40.8251067" lon="9.5895783"><ele>122.0</ele><time>2026-04-19T08:16:53.621Z</time></trkpt><trkpt lat="40.8251667" lon="9.5896833"><ele>123.0</ele><time>2026-04-19T08:16:54.629Z</time></trkpt><trkpt lat="40.825215" lon="9.589795"><ele>124.0</ele><time>2026-04-19T08:16:55.636Z</time></trkpt><trkpt lat="40.8252567" lon="9.5899067"><ele>125.0</ele><time>2026-04-19T08:16:56.642Z</time></trkpt><trkpt lat="40.8252933" lon="9.5900133"><ele>126.0</ele><time>2026-04-19T08:16:57.632Z</time></trkpt><trkpt lat="40.82533" lon="9.5901117"><ele>126.0</ele><time>2026-04-19T08:16:58.622Z</time></trkpt><trkpt lat="40.8253667" lon="9.5902017"><ele>126.0</ele><time>2026-04-19T08:16:59.629Z</time></trkpt><trkpt lat="40.8254017" lon="9.590285"><ele>126.0</ele><time>2026-04-19T08:17:00.634Z</time></trkpt><trkpt lat="40.8254367" lon="9.5903617"><ele>126.0</ele><time>2026-04-19T08:17:01.642Z</time></trkpt><trkpt lat="40.8254967" lon="9.5905017"><ele>126.0</ele><time>2026-04-19T08:17:03.638Z</time></trkpt><trkpt lat="40.825555" lon="9.59064"><ele>125.0</ele><time>2026-04-19T08:17:05.634Z</time></trkpt><trkpt lat="40.8255867" lon="9.5907183"><ele>124.0</ele><time>2026-04-19T08:17:06.642Z</time></trkpt><trkpt lat="40.8256217" lon="9.5908017"><ele>123.0</ele><time>2026-04-19T08:17:07.631Z</time></trkpt><trkpt lat="40.8256567" lon="9.5908933"><ele>122.0</ele><time>2026-04-19T08:17:08.638Z</time></trkpt><trkpt lat="40.8256917" lon="9.5909917"><ele>121.0</ele><time>2026-04-19T08:17:09.627Z</time></trkpt><trkpt lat="40.8257317" lon="9.5911017"><ele>120.0</ele><time>2026-04-19T08:17:10.634Z</time></trkpt><trkpt lat="40.825775" lon="9.5912217"><ele>118.83333333333333</ele><time>2026-04-19T08:17:11.641Z</time></trkpt><trkpt lat="40.8258183" lon="9.59133"><ele>117.66666666666666</ele><time>2026-04-19T08:17:12.631Z</time></trkpt><trkpt lat="40.8258633" lon="9.5914217"><ele>116.5</ele><time>2026-04-19T08:17:13.638Z</time></trkpt><trkpt lat="40.825905" lon="9.5914967"><ele>115.33333333333333</ele><time>2026-04-19T08:17:14.626Z</time></trkpt><trkpt lat="40.8259467" lon="9.5915717"><ele>114.16666666666666</ele><time>2026-04-19T08:17:15.634Z</time></trkpt><trkpt lat="40.82598" lon="9.5916583"><ele>113.0</ele><time>2026-04-19T08:17:16.624Z</time></trkpt><trkpt lat="40.8260083" lon="9.591755"><ele>114.66666666666666</ele><time>2026-04-19T08:17:17.631Z</time></trkpt><trkpt lat="40.826035" lon="9.5918583"><ele>116.33333333333333</ele><time>2026-04-19T08:17:18.637Z</time></trkpt><trkpt lat="40.8260583" lon="9.5919617"><ele>118.0</ele><time>2026-04-19T08:17:19.627Z</time></trkpt><trkpt lat="40.8260767" lon="9.5920633"><ele>119.66666666666666</ele><time>2026-04-19T08:17:20.634Z</time></trkpt><trkpt lat="40.826095" lon="9.59216"><ele>121.33333333333333</ele><time>2026-04-19T08:17:21.624Z</time></trkpt><trkpt lat="40.8261117" lon="9.5922583"><ele>123.0</ele><time>2026-04-19T08:17:22.63Z</time></trkpt><trkpt lat="40.8261233" lon="9.59235"><ele>123.0</ele><time>2026-04-19T08:17:23.637Z</time></trkpt><trkpt lat="40.8261317" lon="9.5924383"><ele>123.00000000000001</ele><time>2026-04-19T08:17:24.626Z</time></trkpt><trkpt lat="40.8261417" lon="9.5925883"><ele>123.00000000000001</ele><time>2026-04-19T08:17:26.623Z</time></trkpt><trkpt lat="40.826135" lon="9.592725"><ele>123.0</ele><time>2026-04-19T08:17:28.636Z</time></trkpt><trkpt lat="40.8261233" lon="9.5928683"><ele>123.0</ele><time>2026-04-19T08:17:30.633Z</time></trkpt><trkpt lat="40.82612" lon="9.5929517"><ele>122.33333333333333</ele><time>2026-04-19T08:17:31.623Z</time></trkpt><trkpt lat="40.8261133" lon="9.593045"><ele>121.66666666666666</ele><time>2026-04-19T08:17:32.629Z</time></trkpt><trkpt lat="40.8261083" lon="9.5931483"><ele>121.0</ele><time>2026-04-19T08:17:33.636Z</time></trkpt><trkpt lat="40.8261017" lon="9.5932633"><ele>120.33333333333333</ele><time>2026-04-19T08:17:34.642Z</time></trkpt><trkpt lat="40.8260933" lon="9.5933833"><ele>119.66666666666666</ele><time>2026-04-19T08:17:35.632Z</time></trkpt><trkpt lat="40.8260867" lon="9.59351"><ele>119.0</ele><time>2026-04-19T08:17:36.638Z</time></trkpt><trkpt lat="40.8260817" lon="9.593635"><ele>118.99999999999999</ele><time>2026-04-19T08:17:37.628Z</time></trkpt><trkpt lat="40.826075" lon="9.5937467"><ele>119.0</ele><time>2026-04-19T08:17:38.636Z</time></trkpt><trkpt lat="40.8260683" lon="9.5938433"><ele>119.0</ele><time>2026-04-19T08:17:39.642Z</time></trkpt><trkpt lat="40.8260633" lon="9.5939933"><ele>119.0</ele><time>2026-04-19T08:17:41.639Z</time></trkpt><trkpt lat="40.82605" lon="9.5940917"><ele>118.99999999999999</ele><time>2026-04-19T08:17:43.634Z</time></trkpt><trkpt lat="40.8259783" lon="9.594115"><ele>119.0</ele><time>2026-04-19T08:17:47.627Z</time></trkpt><trkpt lat="40.8259167" lon="9.5940617"><ele>118.99999999999999</ele><time>2026-04-19T08:17:49.625Z</time></trkpt><trkpt lat="40.8258183" lon="9.5939867"><ele>119.0</ele><time>2026-04-19T08:17:51.638Z</time></trkpt><trkpt lat="40.8257517" lon="9.5939483"><ele>119.0</ele><time>2026-04-19T08:17:52.627Z</time></trkpt><trkpt lat="40.8256733" lon="9.5939183"><ele>119.0</ele><time>2026-04-19T08:17:53.635Z</time></trkpt><trkpt lat="40.82559" lon="9.5939017"><ele>118.99999999999999</ele><time>2026-04-19T08:17:54.624Z</time></trkpt><trkpt lat="40.8255" lon="9.593905"><ele>119.0</ele><time>2026-04-19T08:17:55.631Z</time></trkpt><trkpt lat="40.8253983" lon="9.5939333"><ele>119.0</ele><time>2026-04-19T08:17:56.637Z</time></trkpt><trkpt lat="40.8252917" lon="9.593965"><ele>119.0</ele><time>2026-04-19T08:17:57.627Z</time></trkpt><trkpt lat="40.8251783" lon="9.5940033"><ele>119.0</ele><time>2026-04-19T08:17:58.634Z</time></trkpt><trkpt lat="40.8250567" lon="9.5940417"><ele>119.0</ele><time>2026-04-19T08:17:59.624Z</time></trkpt><trkpt lat="40.82493" lon="9.59409"><ele>120.0</ele><time>2026-04-19T08:18:00.63Z</time></trkpt><trkpt lat="40.8248067" lon="9.5941383"><ele>121.0</ele><time>2026-04-19T08:18:01.636Z</time></trkpt><trkpt lat="40.82469" lon="9.5941833"><ele>122.0</ele><time>2026-04-19T08:18:02.627Z</time></trkpt><trkpt lat="40.8245817" lon="9.5942283"><ele>123.0</ele><time>2026-04-19T08:18:03.634Z</time></trkpt><trkpt lat="40.824475" lon="9.5942767"><ele>123.0</ele><time>2026-04-19T08:18:04.624Z</time></trkpt><trkpt lat="40.8243667" lon="9.5943367"><ele>123.0</ele><time>2026-04-19T08:18:05.63Z</time></trkpt><trkpt lat="40.824255" lon="9.5944083"><ele>123.0</ele><time>2026-04-19T08:18:06.637Z</time></trkpt><trkpt lat="40.8241467" lon="9.594485"><ele>123.0</ele><time>2026-04-19T08:18:07.627Z</time></trkpt><trkpt lat="40.82404" lon="9.5945633"><ele>123.80000000000001</ele><time>2026-04-19T08:18:08.632Z</time></trkpt><trkpt lat="40.8239417" lon="9.5946383"><ele>124.60000000000001</ele><time>2026-04-19T08:18:09.623Z</time></trkpt><trkpt lat="40.8238483" lon="9.5947133"><ele>125.39999999999999</ele><time>2026-04-19T08:18:10.63Z</time></trkpt><trkpt lat="40.82376" lon="9.594795"><ele>126.19999999999999</ele><time>2026-04-19T08:18:11.619Z</time></trkpt><trkpt lat="40.823675" lon="9.594895"><ele>127.0</ele><time>2026-04-19T08:18:12.642Z</time></trkpt><trkpt lat="40.8235883" lon="9.5950083"><ele>127.0</ele><time>2026-04-19T08:18:13.632Z</time></trkpt><trkpt lat="40.82349" lon="9.5951233"><ele>127.0</ele><time>2026-04-19T08:18:14.639Z</time></trkpt><trkpt lat="40.823385" lon="9.5952367"><ele>127.0</ele><time>2026-04-19T08:18:15.629Z</time></trkpt><trkpt lat="40.8232767" lon="9.5953417"><ele>127.0</ele><time>2026-04-19T08:18:16.636Z</time></trkpt><trkpt lat="40.8231717" lon="9.5954383"><ele>125.8</ele><time>2026-04-19T08:18:17.642Z</time></trkpt><trkpt lat="40.823075" lon="9.5955233"><ele>124.6</ele><time>2026-04-19T08:18:18.633Z</time></trkpt><trkpt lat="40.8229783" lon="9.5955883"><ele>123.39999999999999</ele><time>2026-04-19T08:18:19.638Z</time></trkpt><trkpt lat="40.82288" lon="9.595625"><ele>122.19999999999999</ele><time>2026-04-19T08:18:20.628Z</time></trkpt><trkpt lat="40.82278" lon="9.5956217"><ele>121.0</ele><time>2026-04-19T08:18:21.635Z</time></trkpt><trkpt lat="40.8226767" lon="9.5956"><ele>119.75</ele><time>2026-04-19T08:18:22.625Z</time></trkpt><trkpt lat="40.8225633" lon="9.5955633"><ele>118.5</ele><time>2026-04-19T08:18:23.632Z</time></trkpt><trkpt lat="40.8224467" lon="9.5955183"><ele>117.25</ele><time>2026-04-19T08:18:24.639Z</time></trkpt><trkpt lat="40.8223217" lon="9.5954717"><ele>116.0</ele><time>2026-04-19T08:18:25.629Z</time></trkpt><trkpt lat="40.8221917" lon="9.59542"><ele>116.0</ele><time>2026-04-19T08:18:26.635Z</time></trkpt><trkpt lat="40.8220583" lon="9.59536"><ele>116.0</ele><time>2026-04-19T08:18:27.624Z</time></trkpt><trkpt lat="40.82193" lon="9.595295"><ele>116.0</ele><time>2026-04-19T08:18:28.631Z</time></trkpt><trkpt lat="40.8218017" lon="9.59523"><ele>116.0</ele><time>2026-04-19T08:18:29.638Z</time></trkpt><trkpt lat="40.8216783" lon="9.5951667"><ele>115.25</ele><time>2026-04-19T08:18:30.627Z</time></trkpt><trkpt lat="40.8215517" lon="9.5951"><ele>114.5</ele><time>2026-04-19T08:18:31.634Z</time></trkpt><trkpt lat="40.8214233" lon="9.5950333"><ele>113.75</ele><time>2026-04-19T08:18:32.625Z</time></trkpt><trkpt lat="40.8212983" lon="9.594965"><ele>113.0</ele><time>2026-04-19T08:18:33.631Z</time></trkpt><trkpt lat="40.8211767" lon="9.5949"><ele>113.0</ele><time>2026-04-19T08:18:34.638Z</time></trkpt><trkpt lat="40.8210533" lon="9.594835"><ele>113.0</ele><time>2026-04-19T08:18:35.627Z</time></trkpt><trkpt lat="40.8209367" lon="9.5947633"><ele>113.0</ele><time>2026-04-19T08:18:36.635Z</time></trkpt><trkpt lat="40.8208183" lon="9.59469"><ele>113.0</ele><time>2026-04-19T08:18:37.624Z</time></trkpt><trkpt lat="40.8207067" lon="9.5945967"><ele>111.25</ele><time>2026-04-19T08:18:38.63Z</time></trkpt><trkpt lat="40.8205983" lon="9.5945"><ele>109.5</ele><time>2026-04-19T08:18:39.638Z</time></trkpt><trkpt lat="40.8204983" lon="9.594395"><ele>107.75</ele><time>2026-04-19T08:18:40.627Z</time></trkpt><trkpt lat="40.8204" lon="9.5942933"><ele>106.0</ele><time>2026-04-19T08:18:41.634Z</time></trkpt><trkpt lat="40.8203033" lon="9.594195"><ele>106.0</ele><time>2026-04-19T08:18:42.624Z</time></trkpt><trkpt lat="40.8202117" lon="9.5941017"><ele>106.0</ele><time>2026-04-19T08:18:43.631Z</time></trkpt><trkpt lat="40.8201217" lon="9.5940083"><ele>106.0</ele><time>2026-04-19T08:18:44.62Z</time></trkpt><trkpt lat="40.8200283" lon="9.59392"><ele>106.0</ele><time>2026-04-19T08:18:45.627Z</time></trkpt><trkpt lat="40.8199317" lon="9.5938317"><ele>106.0</ele><time>2026-04-19T08:18:46.633Z</time></trkpt><trkpt lat="40.81983" lon="9.5937417"><ele>106.0</ele><time>2026-04-19T08:18:47.623Z</time></trkpt><trkpt lat="40.8197267" lon="9.59365"><ele>106.0</ele><time>2026-04-19T08:18:48.63Z</time></trkpt><trkpt lat="40.819635" lon="9.59356"><ele>106.0</ele><time>2026-04-19T08:18:49.62Z</time></trkpt><trkpt lat="40.8195467" lon="9.5934717"><ele>105.6</ele><time>2026-04-19T08:18:50.644Z</time></trkpt><trkpt lat="40.819465" lon="9.5933783"><ele>105.19999999999999</ele><time>2026-04-19T08:18:51.633Z</time></trkpt><trkpt lat="40.8193867" lon="9.5932833"><ele>104.80000000000001</ele><time>2026-04-19T08:18:52.639Z</time></trkpt><trkpt lat="40.8193217" lon="9.593175"><ele>104.4</ele><time>2026-04-19T08:18:53.63Z</time></trkpt><trkpt lat="40.8192667" lon="9.593055"><ele>104.0</ele><time>2026-04-19T08:18:54.635Z</time></trkpt><trkpt lat="40.8192133" lon="9.5929267"><ele>103.0</ele><time>2026-04-19T08:18:55.626Z</time></trkpt><trkpt lat="40.8191567" lon="9.5928033"><ele>102.0</ele><time>2026-04-19T08:18:56.632Z</time></trkpt><trkpt lat="40.8191" lon="9.59268"><ele>101.0</ele><time>2026-04-19T08:18:57.639Z</time></trkpt><trkpt lat="40.8190317" lon="9.59256"><ele>100.0</ele><time>2026-04-19T08:18:58.628Z</time></trkpt><trkpt lat="40.8189617" lon="9.5924417"><ele>99.0</ele><time>2026-04-19T08:18:59.636Z</time></trkpt><trkpt lat="40.8188967" lon="9.592325"><ele>99.0</ele><time>2026-04-19T08:19:00.625Z</time></trkpt><trkpt lat="40.8188383" lon="9.5922133"><ele>99.0</ele><time>2026-04-19T08:19:01.633Z</time></trkpt><trkpt lat="40.8187917" lon="9.5921083"><ele>99.0</ele><time>2026-04-19T08:19:02.639Z</time></trkpt><trkpt lat="40.8187617" lon="9.5920033"><ele>99.0</ele><time>2026-04-19T08:19:03.629Z</time></trkpt><trkpt lat="40.8187467" lon="9.5918817"><ele>99.0</ele><time>2026-04-19T08:19:04.636Z</time></trkpt><trkpt lat="40.8187367" lon="9.5917467"><ele>97.0</ele><time>2026-04-19T08:19:05.626Z</time></trkpt><trkpt lat="40.81873" lon="9.5915983"><ele>95.0</ele><time>2026-04-19T08:19:06.632Z</time></trkpt><trkpt lat="40.81872" lon="9.5914433"><ele>93.0</ele><time>2026-04-19T08:19:07.638Z</time></trkpt><trkpt lat="40.8187083" lon="9.591285"><ele>91.0</ele><time>2026-04-19T08:19:08.629Z</time></trkpt><trkpt lat="40.8187067" lon="9.5911367"><ele>89.25</ele><time>2026-04-19T08:19:09.635Z</time></trkpt><trkpt lat="40.818715" lon="9.5909917"><ele>87.5</ele><time>2026-04-19T08:19:10.625Z</time></trkpt><trkpt lat="40.818745" lon="9.59085"><ele>85.75</ele><time>2026-04-19T08:19:11.632Z</time></trkpt><trkpt lat="40.81879" lon="9.59071"><ele>84.0</ele><time>2026-04-19T08:19:12.638Z</time></trkpt><trkpt lat="40.81885" lon="9.59057"><ele>84.0</ele><time>2026-04-19T08:19:13.627Z</time></trkpt><trkpt lat="40.8189133" lon="9.5904267"><ele>84.0</ele><time>2026-04-19T08:19:14.635Z</time></trkpt><trkpt lat="40.8189867" lon="9.5902817"><ele>84.0</ele><time>2026-04-19T08:19:15.624Z</time></trkpt><trkpt lat="40.8190617" lon="9.59013"><ele>84.0</ele><time>2026-04-19T08:19:16.63Z</time></trkpt><trkpt lat="40.8191383" lon="9.5899717"><ele>83.0</ele><time>2026-04-19T08:19:17.62Z</time></trkpt><trkpt lat="40.819215" lon="9.5898117"><ele>82.0</ele><time>2026-04-19T08:19:18.627Z</time></trkpt><trkpt lat="40.8192933" lon="9.589655"><ele>81.0</ele><time>2026-04-19T08:19:19.635Z</time></trkpt><trkpt lat="40.8193733" lon="9.5894917"><ele>80.0</ele><time>2026-04-19T08:19:20.624Z</time></trkpt><trkpt lat="40.819445" lon="9.5893267"><ele>79.75</ele><time>2026-04-19T08:19:21.63Z</time></trkpt><trkpt lat="40.8195133" lon="9.5891583"><ele>79.5</ele><time>2026-04-19T08:19:22.621Z</time></trkpt><trkpt lat="40.8195717" lon="9.5889833"><ele>79.25</ele><time>2026-04-19T08:19:23.644Z</time></trkpt><trkpt lat="40.8196217" lon="9.5888"><ele>79.0</ele><time>2026-04-19T08:19:24.634Z</time></trkpt><trkpt lat="40.8196683" lon="9.5886167"><ele>78.5</ele><time>2026-04-19T08:19:25.641Z</time></trkpt><trkpt lat="40.8197133" lon="9.588435"><ele>78.0</ele><time>2026-04-19T08:19:26.631Z</time></trkpt><trkpt lat="40.8197583" lon="9.5882583"><ele>77.5</ele><time>2026-04-19T08:19:27.637Z</time></trkpt><trkpt lat="40.8198067" lon="9.5880933"><ele>77.0</ele><time>2026-04-19T08:19:28.626Z</time></trkpt><trkpt lat="40.8198483" lon="9.58794"><ele>77.0</ele><time>2026-04-19T08:19:29.633Z</time></trkpt><trkpt lat="40.81988" lon="9.5877983"><ele>77.0</ele><time>2026-04-19T08:19:30.64Z</time></trkpt><trkpt lat="40.81991" lon="9.5876667"><ele>77.0</ele><time>2026-04-19T08:19:31.63Z</time></trkpt><trkpt lat="40.81993" lon="9.5875383"><ele>77.0</ele><time>2026-04-19T08:19:32.637Z</time></trkpt><trkpt lat="40.81994" lon="9.5874117"><ele>77.0</ele><time>2026-04-19T08:19:33.627Z</time></trkpt><trkpt lat="40.8199433" lon="9.587285"><ele>77.0</ele><time>2026-04-19T08:19:34.633Z</time></trkpt><trkpt lat="40.8199417" lon="9.587155"><ele>77.0</ele><time>2026-04-19T08:19:35.639Z</time></trkpt><trkpt lat="40.8199433" lon="9.5870183"><ele>77.0</ele><time>2026-04-19T08:19:36.629Z</time></trkpt><trkpt lat="40.8199467" lon="9.5868767"><ele>77.0</ele><time>2026-04-19T08:19:37.636Z</time></trkpt><trkpt lat="40.8199433" lon="9.5867317"><ele>77.0</ele><time>2026-04-19T08:19:38.626Z</time></trkpt><trkpt lat="40.8199417" lon="9.586595"><ele>76.5</ele><time>2026-04-19T08:19:39.633Z</time></trkpt><trkpt lat="40.8199417" lon="9.5864667"><ele>76.0</ele><time>2026-04-19T08:19:40.64Z</time></trkpt><trkpt lat="40.8199417" lon="9.5863467"><ele>75.5</ele><time>2026-04-19T08:19:41.628Z</time></trkpt><trkpt lat="40.8199417" lon="9.586235"><ele>75.0</ele><time>2026-04-19T08:19:42.636Z</time></trkpt><trkpt lat="40.81994" lon="9.5861317"><ele>74.5</ele><time>2026-04-19T08:19:43.625Z</time></trkpt><trkpt lat="40.81993" lon="9.5860367"><ele>74.0</ele><time>2026-04-19T08:19:44.633Z</time></trkpt><trkpt lat="40.8199117" lon="9.585955"><ele>74.0</ele><time>2026-04-19T08:19:45.638Z</time></trkpt><trkpt lat="40.8198533" lon="9.5858317"><ele>74.0</ele><time>2026-04-19T08:19:47.635Z</time></trkpt><trkpt lat="40.8197833" lon="9.5857617"><ele>74.0</ele><time>2026-04-19T08:19:49.631Z</time></trkpt><trkpt lat="40.8197083" lon="9.585765"><ele>74.0</ele><time>2026-04-19T08:19:51.628Z</time></trkpt><trkpt lat="40.8196633" lon="9.5858417"><ele>74.0</ele><time>2026-04-19T08:19:53.625Z</time></trkpt><trkpt lat="40.8195917" lon="9.585895"><ele>74.0</ele><time>2026-04-19T08:19:55.622Z</time></trkpt><trkpt lat="40.8194867" lon="9.5858867"><ele>74.0</ele><time>2026-04-19T08:19:57.634Z</time></trkpt><trkpt lat="40.8194183" lon="9.585895"><ele>74.0</ele><time>2026-04-19T08:19:58.625Z</time></trkpt><trkpt lat="40.8193567" lon="9.5859183"><ele>74.0</ele><time>2026-04-19T08:19:59.631Z</time></trkpt><trkpt lat="40.819295" lon="9.5859617"><ele>74.0</ele><time>2026-04-19T08:20:00.621Z</time></trkpt><trkpt lat="40.8192317" lon="9.5860333"><ele>74.0</ele><time>2026-04-19T08:20:01.644Z</time></trkpt><trkpt lat="40.81917" lon="9.5861367"><ele>74.0</ele><time>2026-04-19T08:20:02.635Z</time></trkpt><trkpt lat="40.8191067" lon="9.5862383"><ele>74.4</ele><time>2026-04-19T08:20:03.64Z</time></trkpt><trkpt lat="40.8190333" lon="9.5863383"><ele>74.80000000000001</ele><time>2026-04-19T08:20:04.631Z</time></trkpt><trkpt lat="40.8189483" lon="9.5864233"><ele>75.19999999999999</ele><time>2026-04-19T08:20:05.638Z</time></trkpt><trkpt lat="40.8188517" lon="9.58649"><ele>75.6</ele><time>2026-04-19T08:20:06.628Z</time></trkpt><trkpt lat="40.8187567" lon="9.586545"><ele>76.0</ele><time>2026-04-19T08:20:07.634Z</time></trkpt><trkpt lat="40.8186633" lon="9.5865867"><ele>76.0</ele><time>2026-04-19T08:20:08.641Z</time></trkpt><trkpt lat="40.81857" lon="9.5866167"><ele>76.0</ele><time>2026-04-19T08:20:09.631Z</time></trkpt><trkpt lat="40.8184717" lon="9.5866367"><ele>76.0</ele><time>2026-04-19T08:20:10.636Z</time></trkpt><trkpt lat="40.8183683" lon="9.5866467"><ele>76.0</ele><time>2026-04-19T08:20:11.626Z</time></trkpt><trkpt lat="40.8182617" lon="9.5866533"><ele>76.0</ele><time>2026-04-19T08:20:12.634Z</time></trkpt><trkpt lat="40.818155" lon="9.5866583"><ele>76.66666666666666</ele><time>2026-04-19T08:20:13.64Z</time></trkpt><trkpt lat="40.8180533" lon="9.5866583"><ele>77.33333333333333</ele><time>2026-04-19T08:20:14.629Z</time></trkpt><trkpt lat="40.8179617" lon="9.5866583"><ele>78.0</ele><time>2026-04-19T08:20:15.637Z</time></trkpt><trkpt lat="40.8178817" lon="9.5866517"><ele>78.66666666666667</ele><time>2026-04-19T08:20:16.627Z</time></trkpt><trkpt lat="40.817805" lon="9.5866367"><ele>79.33333333333334</ele><time>2026-04-19T08:20:17.633Z</time></trkpt><trkpt lat="40.8177317" lon="9.586595"><ele>80.0</ele><time>2026-04-19T08:20:18.64Z</time></trkpt><trkpt lat="40.81766" lon="9.58654"><ele>81.2</ele><time>2026-04-19T08:20:19.629Z</time></trkpt><trkpt lat="40.8175983" lon="9.5864567"><ele>82.4</ele><time>2026-04-19T08:20:20.636Z</time></trkpt><trkpt lat="40.8175383" lon="9.58636"><ele>83.6</ele><time>2026-04-19T08:20:21.626Z</time></trkpt><trkpt lat="40.8174733" lon="9.58626"><ele>84.8</ele><time>2026-04-19T08:20:22.633Z</time></trkpt><trkpt lat="40.8174067" lon="9.58615"><ele>86.0</ele><time>2026-04-19T08:20:23.639Z</time></trkpt><trkpt lat="40.8173383" lon="9.58603"><ele>86.19999999999999</ele><time>2026-04-19T08:20:24.628Z</time></trkpt><trkpt lat="40.817265" lon="9.5859033"><ele>86.39999999999999</ele><time>2026-04-19T08:20:25.636Z</time></trkpt><trkpt lat="40.8171933" lon="9.58578"><ele>86.6</ele><time>2026-04-19T08:20:26.626Z</time></trkpt><trkpt lat="40.8171233" lon="9.5856667"><ele>86.8</ele><time>2026-04-19T08:20:27.632Z</time></trkpt><trkpt lat="40.8170633" lon="9.5855667"><ele>87.0</ele><time>2026-04-19T08:20:28.621Z</time></trkpt><trkpt lat="40.81701" lon="9.5854733"><ele>87.0</ele><time>2026-04-19T08:20:29.629Z</time></trkpt><trkpt lat="40.8169633" lon="9.5853883"><ele>87.0</ele><time>2026-04-19T08:20:30.636Z</time></trkpt><trkpt lat="40.8169167" lon="9.58532"><ele>87.0</ele><time>2026-04-19T08:20:31.625Z</time></trkpt><trkpt lat="40.8168683" lon="9.585265"><ele>87.0</ele><time>2026-04-19T08:20:32.632Z</time></trkpt><trkpt lat="40.8168067" lon="9.5852417"><ele>87.0</ele><time>2026-04-19T08:20:33.622Z</time></trkpt><trkpt lat="40.8167417" lon="9.5852417"><ele>87.0</ele><time>2026-04-19T08:20:34.629Z</time></trkpt><trkpt lat="40.8166767" lon="9.5852433"><ele>87.0</ele><time>2026-04-19T08:20:35.635Z</time></trkpt><trkpt lat="40.81661" lon="9.5852433"><ele>86.5</ele><time>2026-04-19T08:20:36.625Z</time></trkpt><trkpt lat="40.8165417" lon="9.5852417"><ele>86.0</ele><time>2026-04-19T08:20:37.632Z</time></trkpt><trkpt lat="40.8164667" lon="9.5852417"><ele>85.5</ele><time>2026-04-19T08:20:38.622Z</time></trkpt><trkpt lat="40.81639" lon="9.5852433"><ele>85.0</ele><time>2026-04-19T08:20:39.628Z</time></trkpt><trkpt lat="40.8163133" lon="9.5852467"><ele>84.5</ele><time>2026-04-19T08:20:40.635Z</time></trkpt><trkpt lat="40.8162333" lon="9.585255"><ele>84.0</ele><time>2026-04-19T08:20:41.642Z</time></trkpt><trkpt lat="40.8161583" lon="9.585265"><ele>84.0</ele><time>2026-04-19T08:20:42.631Z</time></trkpt><trkpt lat="40.81604" lon="9.585285"><ele>84.0</ele><time>2026-04-19T08:20:44.627Z</time></trkpt><trkpt lat="40.8159667" lon="9.5853167"><ele>84.0</ele><time>2026-04-19T08:20:46.64Z</time></trkpt><trkpt lat="40.816055" lon="9.5853167"><ele>84.0</ele><time>2026-04-19T08:21:02.629Z</time></trkpt><trkpt lat="40.8161517" lon="9.5852933"><ele>84.0</ele><time>2026-04-19T08:21:04.626Z</time></trkpt><trkpt lat="40.816275" lon="9.5852883"><ele>84.0</ele><time>2026-04-19T08:21:06.622Z</time></trkpt><trkpt lat="40.81634" lon="9.5852883"><ele>84.0</ele><time>2026-04-19T08:21:07.629Z</time></trkpt><trkpt lat="40.81643" lon="9.585235"><ele>84.0</ele><time>2026-04-19T08:21:09.626Z</time></trkpt><trkpt lat="40.8164167" lon="9.5851067"><ele>84.0</ele><time>2026-04-19T08:21:11.622Z</time></trkpt><trkpt lat="40.8163833" lon="9.5850283"><ele>84.0</ele><time>2026-04-19T08:21:12.628Z</time></trkpt><trkpt lat="40.8163517" lon="9.584945"><ele>84.0</ele><time>2026-04-19T08:21:13.636Z</time></trkpt><trkpt lat="40.8163167" lon="9.5848467"><ele>84.0</ele><time>2026-04-19T08:21:14.642Z</time></trkpt><trkpt lat="40.81629" lon="9.5847433"><ele>84.0</ele><time>2026-04-19T08:21:15.632Z</time></trkpt><trkpt lat="40.8162617" lon="9.5846317"><ele>84.0</ele><time>2026-04-19T08:21:16.622Z</time></trkpt><trkpt lat="40.8162417" lon="9.58452"><ele>84.0</ele><time>2026-04-19T08:21:17.629Z</time></trkpt><trkpt lat="40.8162267" lon="9.5844033"><ele>84.0</ele><time>2026-04-19T08:21:18.635Z</time></trkpt><trkpt lat="40.8162067" lon="9.5842867"><ele>84.0</ele><time>2026-04-19T08:21:19.641Z</time></trkpt><trkpt lat="40.8161817" lon="9.5841733"><ele>83.80000000000001</ele><time>2026-04-19T08:21:20.631Z</time></trkpt><trkpt lat="40.816145" lon="9.5840633"><ele>83.60000000000001</ele><time>2026-04-19T08:21:21.637Z</time></trkpt><trkpt lat="40.8160967" lon="9.5839583"><ele>83.4</ele><time>2026-04-19T08:21:22.627Z</time></trkpt><trkpt lat="40.8160433" lon="9.5838567"><ele>83.2</ele><time>2026-04-19T08:21:23.635Z</time></trkpt><trkpt lat="40.81598" lon="9.5837633"><ele>83.0</ele><time>2026-04-19T08:21:24.642Z</time></trkpt><trkpt lat="40.8159067" lon="9.5836783"><ele>83.0</ele><time>2026-04-19T08:21:25.631Z</time></trkpt><trkpt lat="40.81584" lon="9.58358"><ele>83.0</ele><time>2026-04-19T08:21:26.638Z</time></trkpt><trkpt lat="40.8157717" lon="9.5834783"><ele>83.0</ele><time>2026-04-19T08:21:27.627Z</time></trkpt><trkpt lat="40.8156933" lon="9.583385"><ele>83.0</ele><time>2026-04-19T08:21:28.635Z</time></trkpt><trkpt lat="40.8156083" lon="9.5832933"><ele>83.0</ele><time>2026-04-19T08:21:29.64Z</time></trkpt><trkpt lat="40.81553" lon="9.583195"><ele>83.0</ele><time>2026-04-19T08:21:30.631Z</time></trkpt><trkpt lat="40.815435" lon="9.5830883"><ele>83.0</ele><time>2026-04-19T08:21:31.638Z</time></trkpt><trkpt lat="40.8153433" lon="9.5829833"><ele>83.0</ele><time>2026-04-19T08:21:32.628Z</time></trkpt><trkpt lat="40.815245" lon="9.5828767"><ele>83.0</ele><time>2026-04-19T08:21:33.633Z</time></trkpt><trkpt lat="40.81515" lon="9.5827683"><ele>84.0</ele><time>2026-04-19T08:21:34.624Z</time></trkpt><trkpt lat="40.8150483" lon="9.5826533"><ele>85.0</ele><time>2026-04-19T08:21:35.631Z</time></trkpt><trkpt lat="40.8149383" lon="9.5825417"><ele>86.0</ele><time>2026-04-19T08:21:36.637Z</time></trkpt><trkpt lat="40.814835" lon="9.5824283"><ele>87.0</ele><time>2026-04-19T08:21:37.626Z</time></trkpt><trkpt lat="40.8147383" lon="9.5823217"><ele>87.0</ele><time>2026-04-19T08:21:38.633Z</time></trkpt><trkpt lat="40.8146517" lon="9.58222"><ele>87.0</ele><time>2026-04-19T08:21:39.623Z</time></trkpt><trkpt lat="40.8145683" lon="9.5821233"><ele>87.0</ele><time>2026-04-19T08:21:40.63Z</time></trkpt><trkpt lat="40.8144967" lon="9.5820333"><ele>87.0</ele><time>2026-04-19T08:21:41.637Z</time></trkpt><trkpt lat="40.8144267" lon="9.5819533"><ele>87.0</ele><time>2026-04-19T08:21:42.627Z</time></trkpt><trkpt lat="40.814365" lon="9.5818833"><ele>87.19999999999999</ele><time>2026-04-19T08:21:43.633Z</time></trkpt><trkpt lat="40.81432" lon="9.5818183"><ele>87.4</ele><time>2026-04-19T08:21:44.623Z</time></trkpt><trkpt lat="40.8142783" lon="9.5817"><ele>87.6</ele><time>2026-04-19T08:21:46.635Z</time></trkpt><trkpt lat="40.8142983" lon="9.581585"><ele>87.80000000000001</ele><time>2026-04-19T08:21:48.633Z</time></trkpt><trkpt lat="40.8143517" lon="9.5814417"><ele>88.0</ele><time>2026-04-19T08:21:50.629Z</time></trkpt><trkpt lat="40.8143833" lon="9.5813533"><ele>88.0</ele><time>2026-04-19T08:21:51.636Z</time></trkpt><trkpt lat="40.814415" lon="9.5812517"><ele>88.0</ele><time>2026-04-19T08:21:52.642Z</time></trkpt><trkpt lat="40.81445" lon="9.58114"><ele>88.0</ele><time>2026-04-19T08:21:53.633Z</time></trkpt><trkpt lat="40.8144833" lon="9.5810183"><ele>88.0</ele><time>2026-04-19T08:21:54.639Z</time></trkpt><trkpt lat="40.8145233" lon="9.5808917"><ele>88.0</ele><time>2026-04-19T08:21:55.629Z</time></trkpt><trkpt lat="40.8145633" lon="9.5807567"><ele>89.0</ele><time>2026-04-19T08:21:56.636Z</time></trkpt><trkpt lat="40.8146033" lon="9.58061"><ele>90.0</ele><time>2026-04-19T08:21:57.641Z</time></trkpt><trkpt lat="40.8146483" lon="9.58046"><ele>91.0</ele><time>2026-04-19T08:21:58.632Z</time></trkpt><trkpt lat="40.8146967" lon="9.5803083"><ele>92.0</ele><time>2026-04-19T08:21:59.638Z</time></trkpt><trkpt lat="40.81474" lon="9.5801533"><ele>93.75</ele><time>2026-04-19T08:22:00.629Z</time></trkpt><trkpt lat="40.8147883" lon="9.5800033"><ele>95.5</ele><time>2026-04-19T08:22:01.635Z</time></trkpt><trkpt lat="40.8148333" lon="9.5798533"><ele>97.25</ele><time>2026-04-19T08:22:02.641Z</time></trkpt><trkpt lat="40.8148833" lon="9.57971"><ele>99.0</ele><time>2026-04-19T08:22:03.631Z</time></trkpt><trkpt lat="40.81493" lon="9.57957"><ele>100.4</ele><time>2026-04-19T08:22:04.638Z</time></trkpt><trkpt lat="40.8149717" lon="9.5794333"><ele>101.80000000000001</ele><time>2026-04-19T08:22:05.627Z</time></trkpt><trkpt lat="40.8150083" lon="9.5793033"><ele>103.19999999999999</ele><time>2026-04-19T08:22:06.635Z</time></trkpt><trkpt lat="40.8150333" lon="9.5791733"><ele>104.6</ele><time>2026-04-19T08:22:07.625Z</time></trkpt><trkpt lat="40.8150517" lon="9.579055"><ele>106.0</ele><time>2026-04-19T08:22:08.63Z</time></trkpt><trkpt lat="40.815065" lon="9.578955"><ele>106.00000000000001</ele><time>2026-04-19T08:22:09.637Z</time></trkpt><trkpt lat="40.8150717" lon="9.578855"><ele>106.0</ele><time>2026-04-19T08:22:10.628Z</time></trkpt><trkpt lat="40.8150717" lon="9.578745"><ele>106.0</ele><time>2026-04-19T08:22:11.635Z</time></trkpt><trkpt lat="40.8150667" lon="9.5786267"><ele>106.0</ele><time>2026-04-19T08:22:12.624Z</time></trkpt><trkpt lat="40.8150683" lon="9.5785083"><ele>106.00000000000001</ele><time>2026-04-19T08:22:13.631Z</time></trkpt><trkpt lat="40.8150783" lon="9.5784017"><ele>106.0</ele><time>2026-04-19T08:22:14.638Z</time></trkpt><trkpt lat="40.8151" lon="9.5782983"><ele>106.42857142857143</ele><time>2026-04-19T08:22:15.628Z</time></trkpt><trkpt lat="40.815125" lon="9.578205"><ele>106.85714285714285</ele><time>2026-04-19T08:22:16.633Z</time></trkpt><trkpt lat="40.81515" lon="9.5781217"><ele>107.28571428571428</ele><time>2026-04-19T08:22:17.624Z</time></trkpt><trkpt lat="40.8151717" lon="9.5780417"><ele>107.71428571428572</ele><time>2026-04-19T08:22:18.63Z</time></trkpt><trkpt lat="40.8151967" lon="9.577965"><ele>108.14285714285714</ele><time>2026-04-19T08:22:19.636Z</time></trkpt><trkpt lat="40.8152283" lon="9.577885"><ele>108.57142857142857</ele><time>2026-04-19T08:22:20.626Z</time></trkpt><trkpt lat="40.8152533" lon="9.5778083"><ele>109.0</ele><time>2026-04-19T08:22:21.633Z</time></trkpt><trkpt lat="40.8152717" lon="9.5776367"><ele>108.80000000000001</ele><time>2026-04-19T08:22:23.63Z</time></trkpt><trkpt lat="40.8152583" lon="9.577535"><ele>108.60000000000001</ele><time>2026-04-19T08:22:24.637Z</time></trkpt><trkpt lat="40.815225" lon="9.5774233"><ele>108.4</ele><time>2026-04-19T08:22:25.627Z</time></trkpt><trkpt lat="40.81518" lon="9.577295"><ele>108.2</ele><time>2026-04-19T08:22:26.633Z</time></trkpt><trkpt lat="40.81513" lon="9.5771533"><ele>108.0</ele><time>2026-04-19T08:22:27.622Z</time></trkpt><trkpt lat="40.8150833" lon="9.5770033"><ele>109.75</ele><time>2026-04-19T08:22:28.629Z</time></trkpt><trkpt lat="40.8150383" lon="9.576855"><ele>111.5</ele><time>2026-04-19T08:22:29.62Z</time></trkpt><trkpt lat="40.8149967" lon="9.5766983"><ele>113.25</ele><time>2026-04-19T08:22:30.643Z</time></trkpt><trkpt lat="40.8149633" lon="9.5765333"><ele>115.0</ele><time>2026-04-19T08:22:31.632Z</time></trkpt><trkpt lat="40.8149383" lon="9.576365"><ele>115.0</ele><time>2026-04-19T08:22:32.639Z</time></trkpt><trkpt lat="40.814915" lon="9.5761933"><ele>115.0</ele><time>2026-04-19T08:22:33.629Z</time></trkpt><trkpt lat="40.81489" lon="9.576025"><ele>115.0</ele><time>2026-04-19T08:22:34.635Z</time></trkpt><trkpt lat="40.8148533" lon="9.575865"><ele>115.0</ele><time>2026-04-19T08:22:35.643Z</time></trkpt><trkpt lat="40.8148117" lon="9.5757183"><ele>116.5</ele><time>2026-04-19T08:22:36.633Z</time></trkpt><trkpt lat="40.8147683" lon="9.5755833"><ele>118.0</ele><time>2026-04-19T08:22:37.639Z</time></trkpt><trkpt lat="40.8147217" lon="9.5754483"><ele>119.5</ele><time>2026-04-19T08:22:38.628Z</time></trkpt><trkpt lat="40.8146667" lon="9.57532"><ele>121.0</ele><time>2026-04-19T08:22:39.636Z</time></trkpt><trkpt lat="40.8145983" lon="9.5751883"><ele>120.25</ele><time>2026-04-19T08:22:40.642Z</time></trkpt><trkpt lat="40.8145233" lon="9.5750583"><ele>119.5</ele><time>2026-04-19T08:22:41.632Z</time></trkpt><trkpt lat="40.8144417" lon="9.57492"><ele>118.75</ele><time>2026-04-19T08:22:42.638Z</time></trkpt><trkpt lat="40.8143667" lon="9.57477"><ele>118.0</ele><time>2026-04-19T08:22:43.629Z</time></trkpt><trkpt lat="40.81429" lon="9.57462"><ele>120.0</ele><time>2026-04-19T08:22:44.635Z</time></trkpt><trkpt lat="40.8142083" lon="9.57447"><ele>122.0</ele><time>2026-04-19T08:22:45.624Z</time></trkpt><trkpt lat="40.8141233" lon="9.57433"><ele>124.0</ele><time>2026-04-19T08:22:46.632Z</time></trkpt><trkpt lat="40.814045" lon="9.5741917"><ele>126.0</ele><time>2026-04-19T08:22:47.638Z</time></trkpt><trkpt lat="40.81398" lon="9.5740467"><ele>126.0</ele><time>2026-04-19T08:22:48.628Z</time></trkpt><trkpt lat="40.8139167" lon="9.5739033"><ele>126.0</ele><time>2026-04-19T08:22:49.635Z</time></trkpt><trkpt lat="40.8138583" lon="9.57378"><ele>126.0</ele><time>2026-04-19T08:22:50.624Z</time></trkpt><trkpt lat="40.8138" lon="9.5736817"><ele>126.0</ele><time>2026-04-19T08:22:51.631Z</time></trkpt><trkpt lat="40.8137467" lon="9.573605"><ele>126.0</ele><time>2026-04-19T08:22:52.637Z</time></trkpt><trkpt lat="40.8136983" lon="9.5735317"><ele>128.5</ele><time>2026-04-19T08:22:53.628Z</time></trkpt><trkpt lat="40.81366" lon="9.5734483"><ele>131.0</ele><time>2026-04-19T08:22:54.635Z</time></trkpt><trkpt lat="40.813645" lon="9.5733483"><ele>133.5</ele><time>2026-04-19T08:22:55.624Z</time></trkpt><trkpt lat="40.8136417" lon="9.5732367"><ele>136.0</ele><time>2026-04-19T08:22:56.631Z</time></trkpt><trkpt lat="40.813645" lon="9.5731167"><ele>138.5</ele><time>2026-04-19T08:22:57.637Z</time></trkpt><trkpt lat="40.8136417" lon="9.5729883"><ele>141.0</ele><time>2026-04-19T08:22:58.628Z</time></trkpt><trkpt lat="40.8136317" lon="9.5728633"><ele>142.6</ele><time>2026-04-19T08:22:59.634Z</time></trkpt><trkpt lat="40.8136267" lon="9.5727533"><ele>144.2</ele><time>2026-04-19T08:23:00.623Z</time></trkpt><trkpt lat="40.81363" lon="9.572655"><ele>145.8</ele><time>2026-04-19T08:23:01.631Z</time></trkpt><trkpt lat="40.8136583" lon="9.5725083"><ele>147.4</ele><time>2026-04-19T08:23:03.643Z</time></trkpt><trkpt lat="40.8136483" lon="9.5723833"><ele>149.0</ele><time>2026-04-19T08:23:05.623Z</time></trkpt><trkpt lat="40.813575" lon="9.5723333"><ele>147.66666666666666</ele><time>2026-04-19T08:23:07.62Z</time></trkpt><trkpt lat="40.813485" lon="9.5722917"><ele>146.33333333333331</ele><time>2026-04-19T08:23:09.632Z</time></trkpt><trkpt lat="40.8134567" lon="9.57217"><ele>145.0</ele><time>2026-04-19T08:23:11.629Z</time></trkpt><trkpt lat="40.8134567" lon="9.5720817"><ele>143.66666666666666</ele><time>2026-04-19T08:23:12.636Z</time></trkpt><trkpt lat="40.8134467" lon="9.5719817"><ele>142.33333333333334</ele><time>2026-04-19T08:23:13.642Z</time></trkpt><trkpt lat="40.8134317" lon="9.571865"><ele>141.0</ele><time>2026-04-19T08:23:14.633Z</time></trkpt><trkpt lat="40.8134117" lon="9.5717433"><ele>141.0</ele><time>2026-04-19T08:23:15.639Z</time></trkpt><trkpt lat="40.8133883" lon="9.57161"><ele>141.0</ele><time>2026-04-19T08:23:16.629Z</time></trkpt><trkpt lat="40.813355" lon="9.5714733"><ele>141.0</ele><time>2026-04-19T08:23:17.636Z</time></trkpt><trkpt lat="40.8133117" lon="9.57134"><ele>141.0</ele><time>2026-04-19T08:23:18.626Z</time></trkpt><trkpt lat="40.8132617" lon="9.57121"><ele>141.0</ele><time>2026-04-19T08:23:19.632Z</time></trkpt><trkpt lat="40.8132133" lon="9.57109"><ele>141.33333333333334</ele><time>2026-04-19T08:23:20.639Z</time></trkpt><trkpt lat="40.81318" lon="9.57098"><ele>141.66666666666666</ele><time>2026-04-19T08:23:21.628Z</time></trkpt><trkpt lat="40.8131733" lon="9.5708683"><ele>142.0</ele><time>2026-04-19T08:23:22.636Z</time></trkpt><trkpt lat="40.8131833" lon="9.57076"><ele>142.33333333333331</ele><time>2026-04-19T08:23:23.625Z</time></trkpt><trkpt lat="40.813205" lon="9.5706667"><ele>142.66666666666666</ele><time>2026-04-19T08:23:24.632Z</time></trkpt><trkpt lat="40.81322" lon="9.5705717"><ele>143.0</ele><time>2026-04-19T08:23:25.639Z</time></trkpt><trkpt lat="40.813225" lon="9.5704767"><ele>143.0</ele><time>2026-04-19T08:23:26.629Z</time></trkpt><trkpt lat="40.8132083" lon="9.5703783"><ele>143.0</ele><time>2026-04-19T08:23:27.635Z</time></trkpt><trkpt lat="40.81317" lon="9.5702783"><ele>143.0</ele><time>2026-04-19T08:23:28.625Z</time></trkpt><trkpt lat="40.8131233" lon="9.5701667"><ele>143.0</ele><time>2026-04-19T08:23:29.631Z</time></trkpt><trkpt lat="40.8130833" lon="9.5700333"><ele>143.0</ele><time>2026-04-19T08:23:30.638Z</time></trkpt><trkpt lat="40.8130533" lon="9.569885"><ele>145.20000000000002</ele><time>2026-04-19T08:23:31.628Z</time></trkpt><trkpt lat="40.8130267" lon="9.5697433"><ele>147.4</ele><time>2026-04-19T08:23:32.634Z</time></trkpt><trkpt lat="40.8129833" lon="9.5696183"><ele>149.60000000000002</ele><time>2026-04-19T08:23:33.624Z</time></trkpt><trkpt lat="40.812915" lon="9.5695033"><ele>151.8</ele><time>2026-04-19T08:23:34.631Z</time></trkpt><trkpt lat="40.8128283" lon="9.569395"><ele>154.0</ele><time>2026-04-19T08:23:35.638Z</time></trkpt><trkpt lat="40.812735" lon="9.5692833"><ele>155.25</ele><time>2026-04-19T08:23:36.627Z</time></trkpt><trkpt lat="40.8126483" lon="9.5691567"><ele>156.5</ele><time>2026-04-19T08:23:37.635Z</time></trkpt><trkpt lat="40.8125683" lon="9.5690133"><ele>157.75</ele><time>2026-04-19T08:23:38.623Z</time></trkpt><trkpt lat="40.8124917" lon="9.5688667"><ele>159.0</ele><time>2026-04-19T08:23:39.63Z</time></trkpt><trkpt lat="40.8124233" lon="9.568735"><ele>160.6</ele><time>2026-04-19T08:23:40.621Z</time></trkpt><trkpt lat="40.812355" lon="9.5686167"><ele>162.2</ele><time>2026-04-19T08:23:41.643Z</time></trkpt><trkpt lat="40.8122883" lon="9.5685"><ele>163.79999999999998</ele><time>2026-04-19T08:23:42.634Z</time></trkpt><trkpt lat="40.8122233" lon="9.56839"><ele>165.4</ele><time>2026-04-19T08:23:43.64Z</time></trkpt><trkpt lat="40.8121567" lon="9.5682917"><ele>167.0</ele><time>2026-04-19T08:23:44.63Z</time></trkpt><trkpt lat="40.8120817" lon="9.5681917"><ele>167.0</ele><time>2026-04-19T08:23:45.637Z</time></trkpt><trkpt lat="40.81201" lon="9.5680867"><ele>167.0</ele><time>2026-04-19T08:23:46.644Z</time></trkpt><trkpt lat="40.8119433" lon="9.5679683"><ele>167.0</ele><time>2026-04-19T08:23:47.634Z</time></trkpt><trkpt lat="40.8118833" lon="9.5678467"><ele>167.0</ele><time>2026-04-19T08:23:48.639Z</time></trkpt><trkpt lat="40.8118233" lon="9.5677267"><ele>167.0</ele><time>2026-04-19T08:23:49.63Z</time></trkpt><trkpt lat="40.8117683" lon="9.56762"><ele>167.28571428571428</ele><time>2026-04-19T08:23:50.637Z</time></trkpt><trkpt lat="40.8117183" lon="9.56752"><ele>167.57142857142858</ele><time>2026-04-19T08:23:51.627Z</time></trkpt><trkpt lat="40.8116783" lon="9.5674283"><ele>167.85714285714286</ele><time>2026-04-19T08:23:52.633Z</time></trkpt><trkpt lat="40.8116483" lon="9.56734"><ele>168.14285714285714</ele><time>2026-04-19T08:23:53.64Z</time></trkpt><trkpt lat="40.8116267" lon="9.567255"><ele>168.42857142857142</ele><time>2026-04-19T08:23:54.629Z</time></trkpt><trkpt lat="40.8116083" lon="9.5671733"><ele>168.71428571428572</ele><time>2026-04-19T08:23:55.636Z</time></trkpt><trkpt lat="40.8115883" lon="9.5670933"><ele>169.0</ele><time>2026-04-19T08:23:56.626Z</time></trkpt><trkpt lat="40.81156" lon="9.56701"><ele>169.2</ele><time>2026-04-19T08:23:57.632Z</time></trkpt><trkpt lat="40.811525" lon="9.5669133"><ele>169.39999999999998</ele><time>2026-04-19T08:23:58.64Z</time></trkpt><trkpt lat="40.8114883" lon="9.5668033"><ele>169.6</ele><time>2026-04-19T08:23:59.628Z</time></trkpt><trkpt lat="40.8114417" lon="9.5666633"><ele>169.8</ele><time>2026-04-19T08:24:00.636Z</time></trkpt><trkpt lat="40.8113967" lon="9.56651"><ele>170.0</ele><time>2026-04-19T08:24:01.625Z</time></trkpt><trkpt lat="40.8113433" lon="9.566355"><ele>170.0</ele><time>2026-04-19T08:24:02.633Z</time></trkpt><trkpt lat="40.8112933" lon="9.5662067"><ele>170.0</ele><time>2026-04-19T08:24:03.639Z</time></trkpt><trkpt lat="40.8112483" lon="9.566065"><ele>170.0</ele><time>2026-04-19T08:24:04.628Z</time></trkpt><trkpt lat="40.811205" lon="9.5659333"><ele>170.0</ele><time>2026-04-19T08:24:05.636Z</time></trkpt><trkpt lat="40.8111517" lon="9.5658033"><ele>170.2</ele><time>2026-04-19T08:24:06.626Z</time></trkpt><trkpt lat="40.8110833" lon="9.5656867"><ele>170.4</ele><time>2026-04-19T08:24:07.631Z</time></trkpt><trkpt lat="40.8110133" lon="9.5655833"><ele>170.60000000000002</ele><time>2026-04-19T08:24:08.639Z</time></trkpt><trkpt lat="40.810945" lon="9.5654867"><ele>170.8</ele><time>2026-04-19T08:24:09.629Z</time></trkpt><trkpt lat="40.8108783" lon="9.5653967"><ele>171.0</ele><time>2026-04-19T08:24:10.635Z</time></trkpt><trkpt lat="40.810815" lon="9.5653067"><ele>167.5</ele><time>2026-04-19T08:24:11.624Z</time></trkpt><trkpt lat="40.810765" lon="9.565205"><ele>164.0</ele><time>2026-04-19T08:24:12.632Z</time></trkpt><trkpt lat="40.8107283" lon="9.5650983"><ele>160.5</ele><time>2026-04-19T08:24:13.622Z</time></trkpt><trkpt lat="40.8107067" lon="9.5649867"><ele>157.0</ele><time>2026-04-19T08:24:14.628Z</time></trkpt><trkpt lat="40.8106933" lon="9.5648717"><ele>153.5</ele><time>2026-04-19T08:24:15.635Z</time></trkpt><trkpt lat="40.8106783" lon="9.5647517"><ele>150.0</ele><time>2026-04-19T08:24:16.625Z</time></trkpt><trkpt lat="40.8106583" lon="9.5646233"><ele>149.0</ele><time>2026-04-19T08:24:17.631Z</time></trkpt><trkpt lat="40.810625" lon="9.56448"><ele>148.0</ele><time>2026-04-19T08:24:18.621Z</time></trkpt><trkpt lat="40.8105917" lon="9.564335"><ele>147.0</ele><time>2026-04-19T08:24:19.628Z</time></trkpt><trkpt lat="40.81057" lon="9.56419"><ele>146.0</ele><time>2026-04-19T08:24:20.634Z</time></trkpt><trkpt lat="40.8105633" lon="9.5640433"><ele>146.0</ele><time>2026-04-19T08:24:21.641Z</time></trkpt><trkpt lat="40.8105733" lon="9.5638967"><ele>146.0</ele><time>2026-04-19T08:24:22.631Z</time></trkpt><trkpt lat="40.8105833" lon="9.56376"><ele>146.0</ele><time>2026-04-19T08:24:23.638Z</time></trkpt><trkpt lat="40.81059" lon="9.56363"><ele>146.0</ele><time>2026-04-19T08:24:24.627Z</time></trkpt><trkpt lat="40.8105883" lon="9.5635067"><ele>146.0</ele><time>2026-04-19T08:24:25.634Z</time></trkpt><trkpt lat="40.8105783" lon="9.563385"><ele>145.33333333333331</ele><time>2026-04-19T08:24:26.641Z</time></trkpt><trkpt lat="40.8105583" lon="9.5632717"><ele>144.66666666666666</ele><time>2026-04-19T08:24:27.631Z</time></trkpt><trkpt lat="40.8105233" lon="9.5631783"><ele>144.0</ele><time>2026-04-19T08:24:28.636Z</time></trkpt><trkpt lat="40.8104767" lon="9.563095"><ele>143.33333333333334</ele><time>2026-04-19T08:24:29.627Z</time></trkpt><trkpt lat="40.81042" lon="9.5630233"><ele>142.66666666666669</ele><time>2026-04-19T08:24:30.634Z</time></trkpt><trkpt lat="40.8103467" lon="9.562965"><ele>142.0</ele><time>2026-04-19T08:24:31.64Z</time></trkpt><trkpt lat="40.8102767" lon="9.5629217"><ele>142.0</ele><time>2026-04-19T08:24:32.63Z</time></trkpt><trkpt lat="40.810215" lon="9.5628733"><ele>142.0</ele><time>2026-04-19T08:24:33.637Z</time></trkpt><trkpt lat="40.8101667" lon="9.5628083"><ele>142.0</ele><time>2026-04-19T08:24:34.626Z</time></trkpt><trkpt lat="40.8101233" lon="9.5627233"><ele>142.0</ele><time>2026-04-19T08:24:35.632Z</time></trkpt><trkpt lat="40.8101" lon="9.5626133"><ele>142.0</ele><time>2026-04-19T08:24:36.64Z</time></trkpt><trkpt lat="40.8101117" lon="9.5624717"><ele>142.0</ele><time>2026-04-19T08:24:37.629Z</time></trkpt><trkpt lat="40.8101217" lon="9.562315"><ele>141.25</ele><time>2026-04-19T08:24:38.637Z</time></trkpt><trkpt lat="40.8101233" lon="9.5621567"><ele>140.5</ele><time>2026-04-19T08:24:39.625Z</time></trkpt><trkpt lat="40.8101233" lon="9.5619917"><ele>139.75</ele><time>2026-04-19T08:24:40.633Z</time></trkpt><trkpt lat="40.8101117" lon="9.5618317"><ele>139.0</ele><time>2026-04-19T08:24:41.623Z</time></trkpt><trkpt lat="40.81009" lon="9.5616683"><ele>137.5</ele><time>2026-04-19T08:24:42.628Z</time></trkpt><trkpt lat="40.810055" lon="9.561495"><ele>136.0</ele><time>2026-04-19T08:24:43.635Z</time></trkpt><trkpt lat="40.8100183" lon="9.5613233"><ele>134.5</ele><time>2026-04-19T08:24:44.626Z</time></trkpt><trkpt lat="40.8099917" lon="9.5611583"><ele>133.0</ele><time>2026-04-19T08:24:45.633Z</time></trkpt><trkpt lat="40.8099683" lon="9.5609967"><ele>132.0</ele><time>2026-04-19T08:24:46.621Z</time></trkpt><trkpt lat="40.8099617" lon="9.56083"><ele>131.0</ele><time>2026-04-19T08:24:47.628Z</time></trkpt><trkpt lat="40.80996" lon="9.5606617"><ele>130.0</ele><time>2026-04-19T08:24:48.636Z</time></trkpt><trkpt lat="40.8099633" lon="9.5604883"><ele>129.0</ele><time>2026-04-19T08:24:49.625Z</time></trkpt><trkpt lat="40.8099683" lon="9.5603133"><ele>128.25</ele><time>2026-04-19T08:24:50.632Z</time></trkpt><trkpt lat="40.8099733" lon="9.5601367"><ele>127.5</ele><time>2026-04-19T08:24:51.622Z</time></trkpt><trkpt lat="40.809985" lon="9.5599667"><ele>126.75</ele><time>2026-04-19T08:24:52.628Z</time></trkpt><trkpt lat="40.8100033" lon="9.5598067"><ele>126.0</ele><time>2026-04-19T08:24:53.634Z</time></trkpt><trkpt lat="40.8100217" lon="9.5596567"><ele>126.4</ele><time>2026-04-19T08:24:54.625Z</time></trkpt><trkpt lat="40.8100367" lon="9.5595183"><ele>126.8</ele><time>2026-04-19T08:24:55.631Z</time></trkpt><trkpt lat="40.8100533" lon="9.5593833"><ele>127.20000000000002</ele><time>2026-04-19T08:24:56.622Z</time></trkpt><trkpt lat="40.8100717" lon="9.5592517"><ele>127.60000000000001</ele><time>2026-04-19T08:24:57.628Z</time></trkpt><trkpt lat="40.81009" lon="9.5591183"><ele>128.0</ele><time>2026-04-19T08:24:58.634Z</time></trkpt><trkpt lat="40.8101167" lon="9.5589767"><ele>128.0</ele><time>2026-04-19T08:24:59.642Z</time></trkpt><trkpt lat="40.81015" lon="9.5588283"><ele>128.0</ele><time>2026-04-19T08:25:00.631Z</time></trkpt><trkpt lat="40.810185" lon="9.558675"><ele>128.0</ele><time>2026-04-19T08:25:01.638Z</time></trkpt><trkpt lat="40.810215" lon="9.5585133"><ele>128.0</ele><time>2026-04-19T08:25:02.628Z</time></trkpt><trkpt lat="40.8102417" lon="9.558355"><ele>128.0</ele><time>2026-04-19T08:25:03.635Z</time></trkpt><trkpt lat="40.81026" lon="9.5581967"><ele>128.0</ele><time>2026-04-19T08:25:04.64Z</time></trkpt><trkpt lat="40.8102683" lon="9.5580417"><ele>128.0</ele><time>2026-04-19T08:25:05.631Z</time></trkpt><trkpt lat="40.8102633" lon="9.5578867"><ele>128.0</ele><time>2026-04-19T08:25:06.637Z</time></trkpt><trkpt lat="40.81025" lon="9.5577217"><ele>128.0</ele><time>2026-04-19T08:25:07.627Z</time></trkpt><trkpt lat="40.8102333" lon="9.5575617"><ele>128.0</ele><time>2026-04-19T08:25:08.634Z</time></trkpt><trkpt lat="40.8102183" lon="9.5574083"><ele>128.0</ele><time>2026-04-19T08:25:09.641Z</time></trkpt><trkpt lat="40.810205" lon="9.55726"><ele>128.0</ele><time>2026-04-19T08:25:10.63Z</time></trkpt><trkpt lat="40.8101967" lon="9.5571133"><ele>127.4</ele><time>2026-04-19T08:25:11.636Z</time></trkpt><trkpt lat="40.8102017" lon="9.556975"><ele>126.80000000000001</ele><time>2026-04-19T08:25:12.627Z</time></trkpt><trkpt lat="40.8102217" lon="9.5568483"><ele>126.2</ele><time>2026-04-19T08:25:13.634Z</time></trkpt><trkpt lat="40.8102467" lon="9.5567233"><ele>125.6</ele><time>2026-04-19T08:25:14.624Z</time></trkpt><trkpt lat="40.8102717" lon="9.5565917"><ele>125.0</ele><time>2026-04-19T08:25:15.63Z</time></trkpt><trkpt lat="40.8102967" lon="9.55644"><ele>125.0</ele><time>2026-04-19T08:25:16.637Z</time></trkpt><trkpt lat="40.8103167" lon="9.5562783"><ele>125.0</ele><time>2026-04-19T08:25:17.626Z</time></trkpt><trkpt lat="40.81033" lon="9.556115"><ele>125.0</ele><time>2026-04-19T08:25:18.632Z</time></trkpt><trkpt lat="40.810345" lon="9.5559567"><ele>125.0</ele><time>2026-04-19T08:25:19.623Z</time></trkpt><trkpt lat="40.81036" lon="9.555805"><ele>124.0</ele><time>2026-04-19T08:25:20.629Z</time></trkpt><trkpt lat="40.8103767" lon="9.5556633"><ele>123.0</ele><time>2026-04-19T08:25:21.637Z</time></trkpt><trkpt lat="40.8103933" lon="9.5555183"><ele>122.0</ele><time>2026-04-19T08:25:22.625Z</time></trkpt><trkpt lat="40.81042" lon="9.55538"><ele>121.0</ele><time>2026-04-19T08:25:23.632Z</time></trkpt><trkpt lat="40.8104667" lon="9.5552483"><ele>120.0</ele><time>2026-04-19T08:25:24.622Z</time></trkpt><trkpt lat="40.8105333" lon="9.5551133"><ele>117.25</ele><time>2026-04-19T08:25:25.629Z</time></trkpt><trkpt lat="40.810615" lon="9.5549733"><ele>114.5</ele><time>2026-04-19T08:25:26.635Z</time></trkpt><trkpt lat="40.8107083" lon="9.554835"><ele>111.75</ele><time>2026-04-19T08:25:27.626Z</time></trkpt><trkpt lat="40.8107983" lon="9.554695"><ele>109.0</ele><time>2026-04-19T08:25:28.633Z</time></trkpt><trkpt lat="40.81089" lon="9.5545517"><ele>107.75</ele><time>2026-04-19T08:25:29.622Z</time></trkpt><trkpt lat="40.8109783" lon="9.55441"><ele>106.5</ele><time>2026-04-19T08:25:30.628Z</time></trkpt><trkpt lat="40.8110583" lon="9.5542633"><ele>105.25</ele><time>2026-04-19T08:25:31.636Z</time></trkpt><trkpt lat="40.81113" lon="9.55411"><ele>104.0</ele><time>2026-04-19T08:25:32.642Z</time></trkpt><trkpt lat="40.8112067" lon="9.553955"><ele>103.5</ele><time>2026-04-19T08:25:33.632Z</time></trkpt><trkpt lat="40.8112833" lon="9.5537983"><ele>103.0</ele><time>2026-04-19T08:25:34.639Z</time></trkpt><trkpt lat="40.81136" lon="9.553635"><ele>102.5</ele><time>2026-04-19T08:25:35.628Z</time></trkpt><trkpt lat="40.8114383" lon="9.5534733"><ele>102.0</ele><time>2026-04-19T08:25:36.618Z</time></trkpt><trkpt lat="40.8115267" lon="9.5533133"><ele>102.0</ele><time>2026-04-19T08:25:37.641Z</time></trkpt><trkpt lat="40.811615" lon="9.5531567"><ele>102.0</ele><time>2026-04-19T08:25:38.632Z</time></trkpt><trkpt lat="40.8116967" lon="9.5530067"><ele>102.0</ele><time>2026-04-19T08:25:39.637Z</time></trkpt><trkpt lat="40.8117783" lon="9.5528567"><ele>102.0</ele><time>2026-04-19T08:25:40.628Z</time></trkpt><trkpt lat="40.8118617" lon="9.5527"><ele>101.25</ele><time>2026-04-19T08:25:41.635Z</time></trkpt><trkpt lat="40.8119517" lon="9.5525467"><ele>100.5</ele><time>2026-04-19T08:25:42.642Z</time></trkpt><trkpt lat="40.8120433" lon="9.5523967"><ele>99.75</ele><time>2026-04-19T08:25:43.631Z</time></trkpt><trkpt lat="40.8121283" lon="9.552255"><ele>99.0</ele><time>2026-04-19T08:25:44.638Z</time></trkpt><trkpt lat="40.812205" lon="9.5521183"><ele>98.0</ele><time>2026-04-19T08:25:45.628Z</time></trkpt><trkpt lat="40.8122583" lon="9.5519867"><ele>97.0</ele><time>2026-04-19T08:25:46.635Z</time></trkpt><trkpt lat="40.8123067" lon="9.5518617"><ele>96.0</ele><time>2026-04-19T08:25:47.624Z</time></trkpt><trkpt lat="40.81235" lon="9.5517383"><ele>95.0</ele><time>2026-04-19T08:25:48.631Z</time></trkpt><trkpt lat="40.81239" lon="9.5516183"><ele>94.0</ele><time>2026-04-19T08:25:49.637Z</time></trkpt><trkpt lat="40.8124233" lon="9.5515017"><ele>94.0</ele><time>2026-04-19T08:25:50.627Z</time></trkpt><trkpt lat="40.812455" lon="9.5514017"><ele>94.0</ele><time>2026-04-19T08:25:51.634Z</time></trkpt><trkpt lat="40.812485" lon="9.5513117"><ele>94.0</ele><time>2026-04-19T08:25:52.624Z</time></trkpt><trkpt lat="40.8125317" lon="9.5511883"><ele>94.0</ele><time>2026-04-19T08:25:54.636Z</time></trkpt><trkpt lat="40.8125283" lon="9.551095"><ele>94.0</ele><time>2026-04-19T08:25:57.624Z</time></trkpt><trkpt lat="40.8077767" lon="9.547255"><ele>92.5</ele><time>2026-04-19T08:26:58.626Z</time></trkpt><trkpt lat="40.807695" lon="9.5472417"><ele>91.0</ele><time>2026-04-19T08:27:00.639Z</time></trkpt><trkpt lat="40.8075467" lon="9.5472483"><ele>89.5</ele><time>2026-04-19T08:27:27.633Z</time></trkpt><trkpt lat="40.80748" lon="9.5470283"><ele>88.0</ele><time>2026-04-19T08:27:39.629Z</time></trkpt><trkpt lat="40.8074567" lon="9.5469133"><ele>87.2</ele><time>2026-04-19T08:27:42.631Z</time></trkpt><trkpt lat="40.8074633" lon="9.5468083"><ele>86.4</ele><time>2026-04-19T08:27:45.635Z</time></trkpt><trkpt lat="40.807475" lon="9.54671"><ele>85.60000000000001</ele><time>2026-04-19T08:27:49.628Z</time></trkpt><trkpt lat="40.8075033" lon="9.5464567"><ele>84.80000000000001</ele><time>2026-04-19T08:28:01.641Z</time></trkpt><trkpt lat="40.807505" lon="9.546335"><ele>84.0</ele><time>2026-04-19T08:28:03.637Z</time></trkpt><trkpt lat="40.807525" lon="9.5462333"><ele>84.5</ele><time>2026-04-19T08:28:05.633Z</time></trkpt><trkpt lat="40.8075833" lon="9.546105"><ele>85.0</ele><time>2026-04-19T08:28:07.63Z</time></trkpt><trkpt lat="40.8076333" lon="9.54599"><ele>85.5</ele><time>2026-04-19T08:28:09.627Z</time></trkpt><trkpt lat="40.8076817" lon="9.5458883"><ele>86.0</ele><time>2026-04-19T08:28:11.639Z</time></trkpt><trkpt lat="40.807725" lon="9.5456833"><ele>86.0</ele><time>2026-04-19T08:28:15.633Z</time></trkpt><trkpt lat="40.8077017" lon="9.5455567"><ele>86.0</ele><time>2026-04-19T08:28:17.63Z</time></trkpt><trkpt lat="40.8076483" lon="9.5454183"><ele>86.0</ele><time>2026-04-19T08:28:19.626Z</time></trkpt><trkpt lat="40.8075583" lon="9.5453333"><ele>86.0</ele><time>2026-04-19T08:28:21.639Z</time></trkpt><trkpt lat="40.8075033" lon="9.5452883"><ele>86.0</ele><time>2026-04-19T08:28:23.636Z</time></trkpt><trkpt lat="40.8074567" lon="9.5452267"><ele>86.0</ele><time>2026-04-19T08:28:35.631Z</time></trkpt><trkpt lat="40.80748" lon="9.5454117"><ele>86.0</ele><time>2026-04-19T08:28:54.64Z</time></trkpt><trkpt lat="40.8074067" lon="9.5454683"><ele>86.0</ele><time>2026-04-19T08:28:56.637Z</time></trkpt><trkpt lat="40.8072217" lon="9.5455267"><ele>86.0</ele><time>2026-04-19T08:29:00.629Z</time></trkpt><trkpt lat="40.8071233" lon="9.5454883"><ele>86.0</ele><time>2026-04-19T08:29:02.626Z</time></trkpt><trkpt lat="40.8070267" lon="9.5454417"><ele>86.0</ele><time>2026-04-19T08:29:04.622Z</time></trkpt><trkpt lat="40.8069233" lon="9.545415"><ele>86.0</ele><time>2026-04-19T08:29:06.636Z</time></trkpt><trkpt lat="40.806835" lon="9.54542"><ele>86.0</ele><time>2026-04-19T08:29:08.632Z</time></trkpt><trkpt lat="40.806765" lon="9.54546"><ele>86.0</ele><time>2026-04-19T08:29:10.645Z</time></trkpt><trkpt lat="40.806725" lon="9.5455283"><ele>86.0</ele><time>2026-04-19T08:29:12.625Z</time></trkpt><trkpt lat="40.80669" lon="9.54561"><ele>87.8</ele><time>2026-04-19T08:29:15.628Z</time></trkpt><trkpt lat="40.8066367" lon="9.5456617"><ele>89.6</ele><time>2026-04-19T08:29:17.642Z</time></trkpt><trkpt lat="40.8064867" lon="9.5457367"><ele>91.4</ele><time>2026-04-19T08:29:21.634Z</time></trkpt><trkpt lat="40.8064083" lon="9.5457233"><ele>93.2</ele><time>2026-04-19T08:29:23.63Z</time></trkpt><trkpt lat="40.8063283" lon="9.5457067"><ele>95.0</ele><time>2026-04-19T08:29:25.627Z</time></trkpt><trkpt lat="40.8062667" lon="9.5456867"><ele>95.0</ele><time>2026-04-19T08:29:31.634Z</time></trkpt><trkpt lat="40.80618" lon="9.5456433"><ele>95.0</ele><time>2026-04-19T08:29:34.636Z</time></trkpt><trkpt lat="40.8061017" lon="9.5455883"><ele>95.0</ele><time>2026-04-19T08:29:36.633Z</time></trkpt><trkpt lat="40.8060167" lon="9.5455367"><ele>95.0</ele><time>2026-04-19T08:29:38.629Z</time></trkpt><trkpt lat="40.805875" lon="9.5454617"><ele>95.0</ele><time>2026-04-19T08:29:42.622Z</time></trkpt><trkpt lat="40.8058083" lon="9.545455"><ele>98.2</ele><time>2026-04-19T08:29:44.636Z</time></trkpt><trkpt lat="40.8057433" lon="9.5454583"><ele>101.4</ele><time>2026-04-19T08:29:46.632Z</time></trkpt><trkpt lat="40.8056717" lon="9.545475"><ele>104.6</ele><time>2026-04-19T08:29:48.629Z</time></trkpt><trkpt lat="40.8055867" lon="9.545505"><ele>107.8</ele><time>2026-04-19T08:29:50.641Z</time></trkpt><trkpt lat="40.8054783" lon="9.5455433"><ele>111.0</ele><time>2026-04-19T08:29:52.639Z</time></trkpt><trkpt lat="40.8053683" lon="9.5455883"><ele>111.0</ele><time>2026-04-19T08:29:54.635Z</time></trkpt><trkpt lat="40.8052683" lon="9.54565"><ele>111.0</ele><time>2026-04-19T08:29:56.631Z</time></trkpt><trkpt lat="40.80518" lon="9.5457217"><ele>111.0</ele><time>2026-04-19T08:29:58.627Z</time></trkpt><trkpt lat="40.8051117" lon="9.5457933"><ele>111.0</ele><time>2026-04-19T08:30:00.642Z</time></trkpt><trkpt lat="40.805055" lon="9.545785"><ele>111.0</ele><time>2026-04-19T08:30:08.627Z</time></trkpt><trkpt lat="40.8050883" lon="9.545695"><ele>111.0</ele><time>2026-04-19T08:30:10.623Z</time></trkpt><trkpt lat="40.80515" lon="9.5456183"><ele>111.0</ele><time>2026-04-19T08:30:13.627Z</time></trkpt><trkpt lat="40.8052117" lon="9.5455633"><ele>111.0</ele><time>2026-04-19T08:30:15.624Z</time></trkpt><trkpt lat="40.805255" lon="9.5454917"><ele>111.0</ele><time>2026-04-19T08:30:17.636Z</time></trkpt><trkpt lat="40.8052883" lon="9.5453917"><ele>111.0</ele><time>2026-04-19T08:30:19.633Z</time></trkpt><trkpt lat="40.80531" lon="9.5452717"><ele>111.0</ele><time>2026-04-19T08:30:21.63Z</time></trkpt><trkpt lat="40.8053833" lon="9.54502"><ele>112.33333333333333</ele><time>2026-04-19T08:30:25.623Z</time></trkpt><trkpt lat="40.805405" lon="9.5449367"><ele>113.66666666666666</ele><time>2026-04-19T08:30:28.643Z</time></trkpt><trkpt lat="40.805435" lon="9.5448483"><ele>115.0</ele><time>2026-04-19T08:30:38.641Z</time></trkpt><trkpt lat="40.80539" lon="9.5449183"><ele>116.33333333333333</ele><time>2026-04-19T08:34:30.637Z</time></trkpt><trkpt lat="40.8053483" lon="9.545085"><ele>117.66666666666666</ele><time>2026-04-19T08:34:38.622Z</time></trkpt><trkpt lat="40.805325" lon="9.545175"><ele>119.0</ele><time>2026-04-19T08:34:42.632Z</time></trkpt><trkpt lat="40.805295" lon="9.5452733"><ele>119.0</ele><time>2026-04-19T08:34:46.643Z</time></trkpt><trkpt lat="40.8052733" lon="9.5453533"><ele>119.0</ele><time>2026-04-19T08:34:48.638Z</time></trkpt><trkpt lat="40.805235" lon="9.5454583"><ele>119.0</ele><time>2026-04-19T08:34:51.642Z</time></trkpt><trkpt lat="40.8051183" lon="9.545615"><ele>119.0</ele><time>2026-04-19T08:34:58.639Z</time></trkpt><trkpt lat="40.8050767" lon="9.5456983"><ele>119.0</ele><time>2026-04-19T08:35:01.624Z</time></trkpt><trkpt lat="40.8050533" lon="9.5457883"><ele>117.66666666666666</ele><time>2026-04-19T08:35:03.638Z</time></trkpt><trkpt lat="40.8050517" lon="9.545885"><ele>116.33333333333333</ele><time>2026-04-19T08:35:07.63Z</time></trkpt><trkpt lat="40.805115" lon="9.5458283"><ele>115.0</ele><time>2026-04-19T08:35:12.631Z</time></trkpt><trkpt lat="40.8052283" lon="9.5456967"><ele>113.66666666666666</ele><time>2026-04-19T08:35:16.624Z</time></trkpt><trkpt lat="40.8052917" lon="9.5456567"><ele>112.33333333333333</ele><time>2026-04-19T08:35:18.637Z</time></trkpt><trkpt lat="40.8053633" lon="9.5456183"><ele>111.0</ele><time>2026-04-19T08:35:20.632Z</time></trkpt><trkpt lat="40.8054467" lon="9.5455783"><ele>111.0</ele><time>2026-04-19T08:35:23.62Z</time></trkpt><trkpt lat="40.8055183" lon="9.5455567"><ele>111.0</ele><time>2026-04-19T08:35:26.64Z</time></trkpt><trkpt lat="40.8056" lon="9.54552"><ele>111.0</ele><time>2026-04-19T08:35:29.643Z</time></trkpt><trkpt lat="40.8056883" lon="9.54548"><ele>111.0</ele><time>2026-04-19T08:35:32.629Z</time></trkpt><trkpt lat="40.805765" lon="9.5454467"><ele>111.0</ele><time>2026-04-19T08:35:35.631Z</time></trkpt><trkpt lat="40.805905" lon="9.54547"><ele>111.0</ele><time>2026-04-19T08:35:41.639Z</time></trkpt><trkpt lat="40.8059783" lon="9.545505"><ele>111.0</ele><time>2026-04-19T08:35:44.624Z</time></trkpt><trkpt lat="40.80605" lon="9.54556"><ele>111.0</ele><time>2026-04-19T08:35:47.628Z</time></trkpt><trkpt lat="40.8061233" lon="9.5455917"><ele>111.0</ele><time>2026-04-19T08:35:50.631Z</time></trkpt><trkpt lat="40.8061917" lon="9.5456317"><ele>111.0</ele><time>2026-04-19T08:35:53.634Z</time></trkpt><trkpt lat="40.806275" lon="9.5456767"><ele>111.0</ele><time>2026-04-19T08:35:56.621Z</time></trkpt><trkpt lat="40.806435" lon="9.5457133"><ele>108.71428571428571</ele><time>2026-04-19T08:36:00.629Z</time></trkpt><trkpt lat="40.8065033" lon="9.54572"><ele>106.42857142857143</ele><time>2026-04-19T08:36:02.644Z</time></trkpt><trkpt lat="40.8065833" lon="9.5457017"><ele>104.14285714285714</ele><time>2026-04-19T08:36:05.629Z</time></trkpt><trkpt lat="40.8066467" lon="9.5456567"><ele>101.85714285714286</ele><time>2026-04-19T08:36:07.626Z</time></trkpt><trkpt lat="40.8067017" lon="9.5456067"><ele>99.57142857142858</ele><time>2026-04-19T08:36:09.64Z</time></trkpt><trkpt lat="40.8067533" lon="9.5455583"><ele>97.28571428571429</ele><time>2026-04-19T08:36:15.629Z</time></trkpt><trkpt lat="40.806745" lon="9.5456417"><ele>95.0</ele><time>2026-04-19T08:36:28.631Z</time></trkpt><trkpt lat="40.8067867" lon="9.5458183"><ele>93.5</ele><time>2026-04-19T08:36:38.63Z</time></trkpt><trkpt lat="40.80687" lon="9.545875"><ele>92.0</ele><time>2026-04-19T08:36:42.64Z</time></trkpt><trkpt lat="40.8069333" lon="9.5459"><ele>90.5</ele><time>2026-04-19T08:36:44.637Z</time></trkpt><trkpt lat="40.806985" lon="9.5459483"><ele>89.0</ele><time>2026-04-19T08:36:46.632Z</time></trkpt><trkpt lat="40.8070283" lon="9.5460133"><ele>87.5</ele><time>2026-04-19T08:36:48.63Z</time></trkpt><trkpt lat="40.8070683" lon="9.5460983"><ele>86.0</ele><time>2026-04-19T08:36:50.625Z</time></trkpt><trkpt lat="40.8071833" lon="9.5462433"><ele>86.0</ele><time>2026-04-19T08:36:56.633Z</time></trkpt><trkpt lat="40.80725" lon="9.5462533"><ele>86.0</ele><time>2026-04-19T08:36:58.629Z</time></trkpt><trkpt lat="40.8073267" lon="9.5462733"><ele>86.0</ele><time>2026-04-19T08:37:01.631Z</time></trkpt><trkpt lat="40.8074067" lon="9.5463033"><ele>86.0</ele><time>2026-04-19T08:37:04.635Z</time></trkpt><trkpt lat="40.8074717" lon="9.5463333"><ele>86.0</ele><time>2026-04-19T08:37:06.631Z</time></trkpt><trkpt lat="40.807505" lon="9.54625"><ele>86.0</ele><time>2026-04-19T08:37:11.632Z</time></trkpt><trkpt lat="40.8075917" lon="9.5459833"><ele>86.0</ele><time>2026-04-19T08:37:15.641Z</time></trkpt><trkpt lat="40.8076433" lon="9.545885"><ele>86.0</ele><time>2026-04-19T08:37:17.637Z</time></trkpt><trkpt lat="40.8077" lon="9.5457917"><ele>86.0</ele><time>2026-04-19T08:37:19.634Z</time></trkpt><trkpt lat="40.8077217" lon="9.54568"><ele>86.0</ele><time>2026-04-19T08:37:21.631Z</time></trkpt><trkpt lat="40.8077133" lon="9.5455567"><ele>86.0</ele><time>2026-04-19T08:37:23.626Z</time></trkpt><trkpt lat="40.8076617" lon="9.5454067"><ele>85.4</ele><time>2026-04-19T08:37:25.64Z</time></trkpt><trkpt lat="40.807585" lon="9.5453267"><ele>84.8</ele><time>2026-04-19T08:37:27.636Z</time></trkpt><trkpt lat="40.807515" lon="9.54528"><ele>84.2</ele><time>2026-04-19T08:37:29.633Z</time></trkpt><trkpt lat="40.8073983" lon="9.5452183"><ele>83.60000000000001</ele><time>2026-04-19T08:38:19.63Z</time></trkpt><trkpt lat="40.80729" lon="9.5450983"><ele>83.0</ele><time>2026-04-19T08:38:23.622Z</time></trkpt><trkpt lat="40.8072483" lon="9.5449867"><ele>83.0</ele><time>2026-04-19T08:38:26.642Z</time></trkpt><trkpt lat="40.8072367" lon="9.544885"><ele>83.0</ele><time>2026-04-19T08:38:28.638Z</time></trkpt><trkpt lat="40.8072333" lon="9.5447817"><ele>83.0</ele><time>2026-04-19T08:38:30.635Z</time></trkpt><trkpt lat="40.8072267" lon="9.5446617"><ele>83.0</ele><time>2026-04-19T08:38:33.638Z</time></trkpt><trkpt lat="40.8072183" lon="9.5445717"><ele>83.0</ele><time>2026-04-19T08:38:36.641Z</time></trkpt><trkpt lat="40.8071767" lon="9.544455"><ele>83.0</ele><time>2026-04-19T08:38:39.627Z</time></trkpt><trkpt lat="40.8071283" lon="9.5443617"><ele>81.2</ele><time>2026-04-19T08:38:41.625Z</time></trkpt><trkpt lat="40.8070733" lon="9.5441733"><ele>79.4</ele><time>2026-04-19T08:38:45.633Z</time></trkpt><trkpt lat="40.807065" lon="9.5440683"><ele>77.60000000000001</ele><time>2026-04-19T08:38:48.636Z</time></trkpt><trkpt lat="40.807095" lon="9.5439567"><ele>75.80000000000001</ele><time>2026-04-19T08:38:51.624Z</time></trkpt><trkpt lat="40.807125" lon="9.5438617"><ele>74.0</ele><time>2026-04-19T08:38:53.636Z</time></trkpt><trkpt lat="40.8071417" lon="9.54378"><ele>74.0</ele><time>2026-04-19T08:38:55.632Z</time></trkpt><trkpt lat="40.8070867" lon="9.543855"><ele>74.0</ele><time>2026-04-19T08:46:45.63Z</time></trkpt><trkpt lat="40.807045" lon="9.5440817"><ele>74.0</ele><time>2026-04-19T08:46:51.636Z</time></trkpt><trkpt lat="40.8070667" lon="9.5441683"><ele>74.0</ele><time>2026-04-19T08:46:53.632Z</time></trkpt><trkpt lat="40.8070967" lon="9.54425"><ele>74.0</ele><time>2026-04-19T08:46:55.63Z</time></trkpt><trkpt lat="40.80714" lon="9.5443633"><ele>74.0</ele><time>2026-04-19T08:46:58.633Z</time></trkpt><trkpt lat="40.8071817" lon="9.5444533"><ele>74.0</ele><time>2026-04-19T08:47:00.629Z</time></trkpt><trkpt lat="40.8072183" lon="9.544555"><ele>74.0</ele><time>2026-04-19T08:47:02.642Z</time></trkpt><trkpt lat="40.8072317" lon="9.5446617"><ele>74.0</ele><time>2026-04-19T08:47:04.639Z</time></trkpt><trkpt lat="40.8072283" lon="9.5447717"><ele>74.0</ele><time>2026-04-19T08:47:06.634Z</time></trkpt><trkpt lat="40.80723" lon="9.5448567"><ele>74.0</ele><time>2026-04-19T08:47:08.631Z</time></trkpt><trkpt lat="40.8072683" lon="9.545075"><ele>75.80000000000001</ele><time>2026-04-19T08:47:13.631Z</time></trkpt><trkpt lat="40.807335" lon="9.545155"><ele>77.60000000000001</ele><time>2026-04-19T08:47:16.634Z</time></trkpt><trkpt lat="40.8072683" lon="9.5452"><ele>79.4</ele><time>2026-04-19T08:48:08.627Z</time></trkpt><trkpt lat="40.80712" lon="9.5451017"><ele>81.2</ele><time>2026-04-19T08:48:14.634Z</time></trkpt><trkpt lat="40.8070717" lon="9.54504"><ele>83.0</ele><time>2026-04-19T08:48:16.63Z</time></trkpt><trkpt lat="40.8070183" lon="9.5449567"><ele>83.0</ele><time>2026-04-19T08:48:19.633Z</time></trkpt><trkpt lat="40.8069733" lon="9.544885"><ele>83.0</ele><time>2026-04-19T08:48:21.63Z</time></trkpt><trkpt lat="40.80692" lon="9.54481"><ele>83.0</ele><time>2026-04-19T08:48:23.626Z</time></trkpt><trkpt lat="40.8068617" lon="9.54476"><ele>83.0</ele><time>2026-04-19T08:48:25.639Z</time></trkpt><trkpt lat="40.8067917" lon="9.5447133"><ele>83.0</ele><time>2026-04-19T08:48:28.626Z</time></trkpt><trkpt lat="40.8067417" lon="9.5446583"><ele>83.0</ele><time>2026-04-19T08:48:31.629Z</time></trkpt><trkpt lat="40.80666" lon="9.5444983"><ele>83.4</ele><time>2026-04-19T08:48:36.628Z</time></trkpt><trkpt lat="40.8066133" lon="9.5444117"><ele>83.80000000000001</ele><time>2026-04-19T08:48:38.624Z</time></trkpt><trkpt lat="40.8065733" lon="9.5443417"><ele>84.2</ele><time>2026-04-19T08:48:40.638Z</time></trkpt><trkpt lat="40.8064883" lon="9.5442467"><ele>84.6</ele><time>2026-04-19T08:50:42.642Z</time></trkpt><trkpt lat="40.8063933" lon="9.544115"><ele>85.0</ele><time>2026-04-19T08:50:46.634Z</time></trkpt><trkpt lat="40.806355" lon="9.5440033"><ele>85.0</ele><time>2026-04-19T08:50:49.638Z</time></trkpt><trkpt lat="40.8063583" lon="9.54391"><ele>85.0</ele><time>2026-04-19T08:50:53.63Z</time></trkpt><trkpt lat="40.8063767" lon="9.5438067"><ele>85.0</ele><time>2026-04-19T08:50:57.641Z</time></trkpt><trkpt lat="40.8063833" lon="9.5436933"><ele>85.0</ele><time>2026-04-19T08:51:00.627Z</time></trkpt><trkpt lat="40.8063667" lon="9.5435783"><ele>85.0</ele><time>2026-04-19T08:51:03.63Z</time></trkpt><trkpt lat="40.806325" lon="9.54339"><ele>84.66666666666666</ele><time>2026-04-19T08:51:10.627Z</time></trkpt><trkpt lat="40.806305" lon="9.5432783"><ele>84.33333333333333</ele><time>2026-04-19T08:51:13.63Z</time></trkpt><trkpt lat="40.806295" lon="9.5431883"><ele>84.0</ele><time>2026-04-19T08:51:16.633Z</time></trkpt><trkpt lat="40.8062767" lon="9.5431067"><ele>83.66666666666667</ele><time>2026-04-19T08:51:19.636Z</time></trkpt><trkpt lat="40.8062117" lon="9.5431033"><ele>83.33333333333334</ele><time>2026-04-19T08:51:39.633Z</time></trkpt><trkpt lat="40.8061667" lon="9.543265"><ele>83.0</ele><time>2026-04-19T08:51:46.629Z</time></trkpt><trkpt lat="40.8061333" lon="9.54335"><ele>83.0</ele><time>2026-04-19T08:51:53.627Z</time></trkpt><trkpt lat="40.80608" lon="9.5434167"><ele>83.0</ele><time>2026-04-19T08:52:01.629Z</time></trkpt></trkseg></trk></gpx>